<?xml version="1.0" encoding="UTF-8" standalone="no" ?>
<gpx xmlns="http://www.topografix.com/GPX/1/1" xmlns:xsi="http://www.w3.org/2001/XMLSchema-instance" xsi:schemaLocation="http://www.topografix.com/GPX/1/1 http://www.topografix.com/GPX/1/1/gpx.xsd" version="1.1" creator="VisuGPX - https://www.visugpx.com">
  <metadata>
    <name>Tour de France 2019</name>
    <desc><![CDATA[4272km en 2 mois en tandem avec notre petit chien dans le panier avant]]></desc>
  </metadata>
  <trk>
    <name><![CDATA[Tracé 20190920-100951]]></name>
    <trkseg>
      <trkpt lat="50.0223" lon="4.21626">
        <ele>283.132</ele>
        <time>2019-09-20T08:15:54.000Z</time>
      </trkpt>
      <trkpt lat="50.02175" lon="4.21765">
        <ele>285.662</ele>
        <time>2019-09-20T08:16:24.000Z</time>
      </trkpt>
      <trkpt lat="50.02102" lon="4.21925">
        <ele>287.172</ele>
        <time>2019-09-20T08:16:54.000Z</time>
      </trkpt>
      <trkpt lat="50.02029" lon="4.22083">
        <ele>288.282</ele>
        <time>2019-09-20T08:17:24.000Z</time>
      </trkpt>
      <trkpt lat="50.01955" lon="4.22259">
        <ele>288.143</ele>
        <time>2019-09-20T08:17:54.000Z</time>
      </trkpt>
      <trkpt lat="50.01886" lon="4.22417">
        <ele>289.076</ele>
        <time>2019-09-20T08:18:24.000Z</time>
      </trkpt>
      <trkpt lat="50.01814" lon="4.22583">
        <ele>288.579</ele>
        <time>2019-09-20T08:18:54.000Z</time>
      </trkpt>
      <trkpt lat="50.01757" lon="4.22751">
        <ele>293.928</ele>
        <time>2019-09-20T08:19:24.000Z</time>
      </trkpt>
      <trkpt lat="50.01721" lon="4.22989">
        <ele>298.13</ele>
        <time>2019-09-20T08:19:54.000Z</time>
      </trkpt>
      <trkpt lat="50.01703" lon="4.23249">
        <ele>299.228</ele>
        <time>2019-09-20T08:20:24.000Z</time>
      </trkpt>
      <trkpt lat="50.01738" lon="4.23514">
        <ele>298.858</ele>
        <time>2019-09-20T08:20:54.000Z</time>
      </trkpt>
      <trkpt lat="50.018" lon="4.23734">
        <ele>282.635</ele>
        <time>2019-09-20T08:21:24.000Z</time>
      </trkpt>
      <trkpt lat="50.01917" lon="4.23966">
        <ele>282.001</ele>
        <time>2019-09-20T08:21:54.000Z</time>
      </trkpt>
      <trkpt lat="50.02051" lon="4.24165">
        <ele>282.151</ele>
        <time>2019-09-20T08:22:24.000Z</time>
      </trkpt>
      <trkpt lat="50.02191" lon="4.2438">
        <ele>282.771</ele>
        <time>2019-09-20T08:22:54.000Z</time>
      </trkpt>
      <trkpt lat="50.02326" lon="4.2459">
        <ele>281.295</ele>
        <time>2019-09-20T08:23:24.000Z</time>
      </trkpt>
      <trkpt lat="50.02465" lon="4.24799">
        <ele>278.268</ele>
        <time>2019-09-20T08:23:54.000Z</time>
      </trkpt>
      <trkpt lat="50.02606" lon="4.25002">
        <ele>278.528</ele>
        <time>2019-09-20T08:24:24.000Z</time>
      </trkpt>
      <trkpt lat="50.02729" lon="4.25187">
        <ele>271.867</ele>
        <time>2019-09-20T08:24:54.000Z</time>
      </trkpt>
      <trkpt lat="50.02844" lon="4.25429">
        <ele>267.542</ele>
        <time>2019-09-20T08:25:24.000Z</time>
      </trkpt>
      <trkpt lat="50.02957" lon="4.2567">
        <ele>262.689</ele>
        <time>2019-09-20T08:25:54.000Z</time>
      </trkpt>
      <trkpt lat="50.03083" lon="4.259">
        <ele>257.911</ele>
        <time>2019-09-20T08:26:24.000Z</time>
      </trkpt>
      <trkpt lat="50.03155" lon="4.25975">
        <ele>254.562</ele>
        <time>2019-09-20T08:26:57.000Z</time>
      </trkpt>
      <trkpt lat="50.03254" lon="4.26093">
        <ele>258.388</ele>
        <time>2019-09-20T08:27:27.000Z</time>
      </trkpt>
      <trkpt lat="50.03381" lon="4.26302">
        <ele>254.571</ele>
        <time>2019-09-20T08:27:57.000Z</time>
      </trkpt>
      <trkpt lat="50.03435" lon="4.26431">
        <ele>250.031</ele>
        <time>2019-09-20T08:28:27.000Z</time>
      </trkpt>
      <trkpt lat="50.03505" lon="4.26641">
        <ele>246.867</ele>
        <time>2019-09-20T08:28:57.000Z</time>
      </trkpt>
      <trkpt lat="50.03565" lon="4.26895">
        <ele>243.218</ele>
        <time>2019-09-20T08:29:27.000Z</time>
      </trkpt>
      <trkpt lat="50.03609" lon="4.27153">
        <ele>244.375</ele>
        <time>2019-09-20T08:29:57.000Z</time>
      </trkpt>
      <trkpt lat="50.03658" lon="4.27424">
        <ele>244.667</ele>
        <time>2019-09-20T08:30:27.000Z</time>
      </trkpt>
      <trkpt lat="50.03705" lon="4.27675">
        <ele>244.008</ele>
        <time>2019-09-20T08:30:57.000Z</time>
      </trkpt>
      <trkpt lat="50.03744" lon="4.27893">
        <ele>242.351</ele>
        <time>2019-09-20T08:31:27.000Z</time>
      </trkpt>
      <trkpt lat="50.03787" lon="4.28133">
        <ele>243.447</ele>
        <time>2019-09-20T08:31:57.000Z</time>
      </trkpt>
      <trkpt lat="50.03833" lon="4.28383">
        <ele>241.706</ele>
        <time>2019-09-20T08:32:27.000Z</time>
      </trkpt>
      <trkpt lat="50.03874" lon="4.28615">
        <ele>242.163</ele>
        <time>2019-09-20T08:32:57.000Z</time>
      </trkpt>
      <trkpt lat="50.03917" lon="4.28847">
        <ele>242.306</ele>
        <time>2019-09-20T08:33:27.000Z</time>
      </trkpt>
      <trkpt lat="50.03978" lon="4.2909">
        <ele>238.78</ele>
        <time>2019-09-20T08:33:57.000Z</time>
      </trkpt>
      <trkpt lat="50.04022" lon="4.29246">
        <ele>234.215</ele>
        <time>2019-09-20T08:34:27.000Z</time>
      </trkpt>
      <trkpt lat="50.04087" lon="4.29464">
        <ele>232.257</ele>
        <time>2019-09-20T08:34:57.000Z</time>
      </trkpt>
      <trkpt lat="50.04166" lon="4.29699">
        <ele>229.47</ele>
        <time>2019-09-20T08:35:27.000Z</time>
      </trkpt>
      <trkpt lat="50.0421" lon="4.29842">
        <ele>230.23</ele>
        <time>2019-09-20T08:35:57.000Z</time>
      </trkpt>
      <trkpt lat="50.04288" lon="4.30083">
        <ele>228.414</ele>
        <time>2019-09-20T08:36:27.000Z</time>
      </trkpt>
      <trkpt lat="50.0436" lon="4.30337">
        <ele>227.962</ele>
        <time>2019-09-20T08:36:57.000Z</time>
      </trkpt>
      <trkpt lat="50.0442" lon="4.30564">
        <ele>229.574</ele>
        <time>2019-09-20T08:37:27.000Z</time>
      </trkpt>
      <trkpt lat="50.04475" lon="4.30755">
        <ele>230.939</ele>
        <time>2019-09-20T08:37:57.000Z</time>
      </trkpt>
      <trkpt lat="50.04519" lon="4.30925">
        <ele>233.24</ele>
        <time>2019-09-20T08:38:27.000Z</time>
      </trkpt>
      <trkpt lat="50.04569" lon="4.31093">
        <ele>242.729</ele>
        <time>2019-09-20T08:38:57.000Z</time>
      </trkpt>
      <trkpt lat="50.04607" lon="4.31258">
        <ele>238.145</ele>
        <time>2019-09-20T08:39:27.000Z</time>
      </trkpt>
      <trkpt lat="50.04645" lon="4.31379">
        <ele>235.253</ele>
        <time>2019-09-20T08:39:57.000Z</time>
      </trkpt>
      <trkpt lat="50.04681" lon="4.31516">
        <ele>235.055</ele>
        <time>2019-09-20T08:40:27.000Z</time>
      </trkpt>
      <trkpt lat="50.0472" lon="4.31637">
        <ele>238.139</ele>
        <time>2019-09-20T08:40:57.000Z</time>
      </trkpt>
      <trkpt lat="50.04744" lon="4.31709">
        <ele>241.965</ele>
        <time>2019-09-20T08:41:36.000Z</time>
      </trkpt>
      <trkpt lat="50.04772" lon="4.31832">
        <ele>244.529</ele>
        <time>2019-09-20T08:42:06.000Z</time>
      </trkpt>
      <trkpt lat="50.04758" lon="4.31806">
        <ele>244.868</ele>
        <time>2019-09-20T08:45:18.001Z</time>
      </trkpt>
      <trkpt lat="50.04701" lon="4.31805">
        <ele>248.643</ele>
        <time>2019-09-20T08:45:48.001Z</time>
      </trkpt>
      <trkpt lat="50.04723" lon="4.32002">
        <ele>249.847</ele>
        <time>2019-09-20T08:46:18.001Z</time>
      </trkpt>
      <trkpt lat="50.04697" lon="4.32166">
        <ele>248.765</ele>
        <time>2019-09-20T08:46:48.001Z</time>
      </trkpt>
      <trkpt lat="50.04622" lon="4.32274">
        <ele>256.958</ele>
        <time>2019-09-20T08:47:18.001Z</time>
      </trkpt>
      <trkpt lat="50.04552" lon="4.32364">
        <ele>264.056</ele>
        <time>2019-09-20T08:47:48.001Z</time>
      </trkpt>
      <trkpt lat="50.04478" lon="4.32445">
        <ele>262.6</ele>
        <time>2019-09-20T08:48:18.001Z</time>
      </trkpt>
      <trkpt lat="50.04404" lon="4.32532">
        <ele>266.137</ele>
        <time>2019-09-20T08:48:48.001Z</time>
      </trkpt>
      <trkpt lat="50.04332" lon="4.32614">
        <ele>265.311</ele>
        <time>2019-09-20T08:49:18.001Z</time>
      </trkpt>
      <trkpt lat="50.04249" lon="4.3274">
        <ele>265.764</ele>
        <time>2019-09-20T08:49:48.001Z</time>
      </trkpt>
      <trkpt lat="50.04154" lon="4.32911">
        <ele>261.841</ele>
        <time>2019-09-20T08:50:18.001Z</time>
      </trkpt>
      <trkpt lat="50.04038" lon="4.33097">
        <ele>258.801</ele>
        <time>2019-09-20T08:50:48.001Z</time>
      </trkpt>
      <trkpt lat="50.03923" lon="4.33216">
        <ele>256.775</ele>
        <time>2019-09-20T08:51:18.001Z</time>
      </trkpt>
      <trkpt lat="50.03822" lon="4.33316">
        <ele>260.597</ele>
        <time>2019-09-20T08:51:48.001Z</time>
      </trkpt>
      <trkpt lat="50.03667" lon="4.33466">
        <ele>254.395</ele>
        <time>2019-09-20T08:52:18.001Z</time>
      </trkpt>
      <trkpt lat="50.03421" lon="4.33642">
        <ele>245.918</ele>
        <time>2019-09-20T08:52:48.001Z</time>
      </trkpt>
      <trkpt lat="50.03292" lon="4.33686">
        <ele>247.21</ele>
        <time>2019-09-20T08:53:18.001Z</time>
      </trkpt>
      <trkpt lat="50.03207" lon="4.33735">
        <ele>250.166</ele>
        <time>2019-09-20T08:53:48.001Z</time>
      </trkpt>
      <trkpt lat="50.03102" lon="4.3383">
        <ele>250.126</ele>
        <time>2019-09-20T08:54:18.001Z</time>
      </trkpt>
      <trkpt lat="50.0299" lon="4.33932">
        <ele>251.852</ele>
        <time>2019-09-20T08:54:48.001Z</time>
      </trkpt>
      <trkpt lat="50.02871" lon="4.34038">
        <ele>251.91</ele>
        <time>2019-09-20T08:55:18.001Z</time>
      </trkpt>
      <trkpt lat="50.02749" lon="4.3409">
        <ele>259.12</ele>
        <time>2019-09-20T08:55:48.001Z</time>
      </trkpt>
      <trkpt lat="50.02741" lon="4.34226">
        <ele>260.36</ele>
        <time>2019-09-20T08:56:18.001Z</time>
      </trkpt>
      <trkpt lat="50.02777" lon="4.34368">
        <ele>261.159</ele>
        <time>2019-09-20T08:56:48.001Z</time>
      </trkpt>
      <trkpt lat="50.02812" lon="4.34502">
        <ele>260.752</ele>
        <time>2019-09-20T08:57:18.001Z</time>
      </trkpt>
      <trkpt lat="50.02834" lon="4.34667">
        <ele>259.73</ele>
        <time>2019-09-20T08:57:48.001Z</time>
      </trkpt>
      <trkpt lat="50.02846" lon="4.3493">
        <ele>254.736</ele>
        <time>2019-09-20T08:58:18.001Z</time>
      </trkpt>
      <trkpt lat="50.02856" lon="4.35151">
        <ele>255.649</ele>
        <time>2019-09-20T08:58:48.001Z</time>
      </trkpt>
      <trkpt lat="50.02863" lon="4.35323">
        <ele>258.732</ele>
        <time>2019-09-20T08:59:18.001Z</time>
      </trkpt>
      <trkpt lat="50.02859" lon="4.35502">
        <ele>260.456</ele>
        <time>2019-09-20T08:59:48.001Z</time>
      </trkpt>
      <trkpt lat="50.02851" lon="4.35712">
        <ele>261.38</ele>
        <time>2019-09-20T09:00:18.001Z</time>
      </trkpt>
      <trkpt lat="50.02834" lon="4.35903">
        <ele>257.942</ele>
        <time>2019-09-20T09:00:48.001Z</time>
      </trkpt>
      <trkpt lat="50.02818" lon="4.36117">
        <ele>258.551</ele>
        <time>2019-09-20T09:01:18.001Z</time>
      </trkpt>
      <trkpt lat="50.02858" lon="4.36304">
        <ele>258.865</ele>
        <time>2019-09-20T09:01:48.001Z</time>
      </trkpt>
      <trkpt lat="50.0288" lon="4.36459">
        <ele>261.405</ele>
        <time>2019-09-20T09:02:18.001Z</time>
      </trkpt>
      <trkpt lat="50.02901" lon="4.36606">
        <ele>265.076</ele>
        <time>2019-09-20T09:02:48.001Z</time>
      </trkpt>
      <trkpt lat="50.02922" lon="4.36755">
        <ele>269.927</ele>
        <time>2019-09-20T09:03:18.001Z</time>
      </trkpt>
      <trkpt lat="50.02945" lon="4.36981">
        <ele>264.13</ele>
        <time>2019-09-20T09:03:48.001Z</time>
      </trkpt>
      <trkpt lat="50.02962" lon="4.37217">
        <ele>259.447</ele>
        <time>2019-09-20T09:04:18.001Z</time>
      </trkpt>
      <trkpt lat="50.02948" lon="4.37443">
        <ele>262.021</ele>
        <time>2019-09-20T09:04:48.001Z</time>
      </trkpt>
      <trkpt lat="50.02893" lon="4.37603">
        <ele>266.142</ele>
        <time>2019-09-20T09:05:18.001Z</time>
      </trkpt>
      <trkpt lat="50.0279" lon="4.37565">
        <ele>270.04</ele>
        <time>2019-09-20T09:05:48.001Z</time>
      </trkpt>
      <trkpt lat="50.02718" lon="4.37484">
        <ele>267.994</ele>
        <time>2019-09-20T09:06:18.001Z</time>
      </trkpt>
      <trkpt lat="50.0266" lon="4.37409">
        <ele>275.943</ele>
        <time>2019-09-20T09:06:48.001Z</time>
      </trkpt>
      <trkpt lat="50.02593" lon="4.3741">
        <ele>277.974</ele>
        <time>2019-09-20T09:07:18.001Z</time>
      </trkpt>
      <trkpt lat="50.02529" lon="4.3742">
        <ele>279.581</ele>
        <time>2019-09-20T09:07:48.001Z</time>
      </trkpt>
      <trkpt lat="50.02461" lon="4.37431">
        <ele>288.62</ele>
        <time>2019-09-20T09:08:24.001Z</time>
      </trkpt>
      <trkpt lat="50.02403" lon="4.37438">
        <ele>291.988</ele>
        <time>2019-09-20T09:08:54.001Z</time>
      </trkpt>
      <trkpt lat="50.02331" lon="4.37445">
        <ele>300.419</ele>
        <time>2019-09-20T09:09:30.001Z</time>
      </trkpt>
      <trkpt lat="50.02267" lon="4.37411">
        <ele>305.689</ele>
        <time>2019-09-20T09:10:00.000Z</time>
      </trkpt>
      <trkpt lat="50.0221" lon="4.37373">
        <ele>303.952</ele>
        <time>2019-09-20T09:10:30.001Z</time>
      </trkpt>
      <trkpt lat="50.02146" lon="4.37343">
        <ele>307.404</ele>
        <time>2019-09-20T09:11:00.000Z</time>
      </trkpt>
      <trkpt lat="50.02078" lon="4.37305">
        <ele>311.876</ele>
        <time>2019-09-20T09:11:30.001Z</time>
      </trkpt>
      <trkpt lat="50.02" lon="4.3723">
        <ele>313.396</ele>
        <time>2019-09-20T09:12:00.000Z</time>
      </trkpt>
      <trkpt lat="50.01922" lon="4.37212">
        <ele>310.554</ele>
        <time>2019-09-20T09:17:30.001Z</time>
      </trkpt>
      <trkpt lat="50.01754" lon="4.37219">
        <ele>302.016</ele>
        <time>2019-09-20T09:18:00.000Z</time>
      </trkpt>
      <trkpt lat="50.01602" lon="4.37254">
        <ele>297.702</ele>
        <time>2019-09-20T09:18:30.001Z</time>
      </trkpt>
      <trkpt lat="50.0149" lon="4.37339">
        <ele>299.792</ele>
        <time>2019-09-20T09:19:00.000Z</time>
      </trkpt>
      <trkpt lat="50.01417" lon="4.3739">
        <ele>312.787</ele>
        <time>2019-09-20T09:19:30.001Z</time>
      </trkpt>
      <trkpt lat="50.01357" lon="4.37436">
        <ele>322.301</ele>
        <time>2019-09-20T09:20:00.000Z</time>
      </trkpt>
      <trkpt lat="50.01297" lon="4.37479">
        <ele>328.206</ele>
        <time>2019-09-20T09:20:30.001Z</time>
      </trkpt>
      <trkpt lat="50.01244" lon="4.37516">
        <ele>331.144</ele>
        <time>2019-09-20T09:21:00.000Z</time>
      </trkpt>
      <trkpt lat="50.01179" lon="4.37561">
        <ele>334.014</ele>
        <time>2019-09-20T09:21:30.001Z</time>
      </trkpt>
      <trkpt lat="50.01092" lon="4.37627">
        <ele>337.502</ele>
        <time>2019-09-20T09:22:00.000Z</time>
      </trkpt>
      <trkpt lat="50.00894" lon="4.37763">
        <ele>325.656</ele>
        <time>2019-09-20T09:22:30.001Z</time>
      </trkpt>
      <trkpt lat="50.00652" lon="4.37933">
        <ele>304.124</ele>
        <time>2019-09-20T09:23:00.000Z</time>
      </trkpt>
      <trkpt lat="50.00388" lon="4.38128">
        <ele>296.973</ele>
        <time>2019-09-20T09:23:30.001Z</time>
      </trkpt>
      <trkpt lat="50.00248" lon="4.38441">
        <ele>283.469</ele>
        <time>2019-09-20T09:24:00.000Z</time>
      </trkpt>
      <trkpt lat="50.00192" lon="4.38561">
        <ele>291.678</ele>
        <time>2019-09-20T09:24:30.001Z</time>
      </trkpt>
      <trkpt lat="49.99901" lon="4.38337">
        <ele>281.664</ele>
        <time>2019-09-20T09:25:00.000Z</time>
      </trkpt>
      <trkpt lat="49.99643" lon="4.3834">
        <ele>267.207</ele>
        <time>2019-09-20T09:25:30.001Z</time>
      </trkpt>
      <trkpt lat="49.99521" lon="4.38418">
        <ele>273.925</ele>
        <time>2019-09-20T09:26:00.000Z</time>
      </trkpt>
      <trkpt lat="49.99398" lon="4.38493">
        <ele>282.135</ele>
        <time>2019-09-20T09:26:30.001Z</time>
      </trkpt>
      <trkpt lat="49.99268" lon="4.38558">
        <ele>287.342</ele>
        <time>2019-09-20T09:27:00.000Z</time>
      </trkpt>
      <trkpt lat="49.99148" lon="4.38554">
        <ele>281.344</ele>
        <time>2019-09-20T09:27:30.001Z</time>
      </trkpt>
      <trkpt lat="49.99073" lon="4.38516">
        <ele>286.555</ele>
        <time>2019-09-20T09:28:00.000Z</time>
      </trkpt>
      <trkpt lat="49.98969" lon="4.38439">
        <ele>286.183</ele>
        <time>2019-09-20T09:28:30.001Z</time>
      </trkpt>
      <trkpt lat="49.98838" lon="4.38404">
        <ele>283.266</ele>
        <time>2019-09-20T09:29:00.000Z</time>
      </trkpt>
      <trkpt lat="49.98693" lon="4.38364">
        <ele>287.683</ele>
        <time>2019-09-20T09:29:30.001Z</time>
      </trkpt>
      <trkpt lat="49.98525" lon="4.38313">
        <ele>280.212</ele>
        <time>2019-09-20T09:30:00.000Z</time>
      </trkpt>
      <trkpt lat="49.98427" lon="4.38352">
        <ele>284.979</ele>
        <time>2019-09-20T09:30:30.001Z</time>
      </trkpt>
      <trkpt lat="49.98331" lon="4.38349">
        <ele>289.311</ele>
        <time>2019-09-20T09:31:00.000Z</time>
      </trkpt>
      <trkpt lat="49.98242" lon="4.3834">
        <ele>292.369</ele>
        <time>2019-09-20T09:31:30.001Z</time>
      </trkpt>
      <trkpt lat="49.98147" lon="4.38355">
        <ele>288.89</ele>
        <time>2019-09-20T09:32:00.000Z</time>
      </trkpt>
      <trkpt lat="49.98035" lon="4.38363">
        <ele>289.592</ele>
        <time>2019-09-20T09:32:30.001Z</time>
      </trkpt>
      <trkpt lat="49.97914" lon="4.38318">
        <ele>299.676</ele>
        <time>2019-09-20T09:33:00.000Z</time>
      </trkpt>
      <trkpt lat="49.97801" lon="4.38207">
        <ele>304.449</ele>
        <time>2019-09-20T09:33:30.001Z</time>
      </trkpt>
      <trkpt lat="49.97684" lon="4.38082">
        <ele>311.518</ele>
        <time>2019-09-20T09:34:00.000Z</time>
      </trkpt>
      <trkpt lat="49.97566" lon="4.37955">
        <ele>299.317</ele>
        <time>2019-09-20T09:34:30.001Z</time>
      </trkpt>
      <trkpt lat="49.97412" lon="4.37788">
        <ele>287.432</ele>
        <time>2019-09-20T09:35:00.000Z</time>
      </trkpt>
      <trkpt lat="49.97268" lon="4.37638">
        <ele>281.61</ele>
        <time>2019-09-20T09:35:30.001Z</time>
      </trkpt>
      <trkpt lat="49.97135" lon="4.3754">
        <ele>290.712</ele>
        <time>2019-09-20T09:36:00.000Z</time>
      </trkpt>
      <trkpt lat="49.96992" lon="4.37491">
        <ele>295.417</ele>
        <time>2019-09-20T09:36:30.001Z</time>
      </trkpt>
      <trkpt lat="49.9688" lon="4.37564">
        <ele>291.819</ele>
        <time>2019-09-20T09:37:00.000Z</time>
      </trkpt>
      <trkpt lat="49.96777" lon="4.37657">
        <ele>284.785</ele>
        <time>2019-09-20T09:37:30.001Z</time>
      </trkpt>
      <trkpt lat="49.96687" lon="4.37725">
        <ele>288.879</ele>
        <time>2019-09-20T09:38:00.000Z</time>
      </trkpt>
      <trkpt lat="49.96599" lon="4.37786">
        <ele>291.439</ele>
        <time>2019-09-20T09:38:30.001Z</time>
      </trkpt>
      <trkpt lat="49.9651" lon="4.37832">
        <ele>292.747</ele>
        <time>2019-09-20T09:39:00.000Z</time>
      </trkpt>
      <trkpt lat="49.96417" lon="4.3785">
        <ele>291.855</ele>
        <time>2019-09-20T09:39:30.001Z</time>
      </trkpt>
      <trkpt lat="49.96323" lon="4.37863">
        <ele>295.141</ele>
        <time>2019-09-20T09:40:00.000Z</time>
      </trkpt>
      <trkpt lat="49.96239" lon="4.37902">
        <ele>302.166</ele>
        <time>2019-09-20T09:40:30.001Z</time>
      </trkpt>
      <trkpt lat="49.96165" lon="4.37977">
        <ele>304.215</ele>
        <time>2019-09-20T09:41:00.000Z</time>
      </trkpt>
      <trkpt lat="49.96074" lon="4.38041">
        <ele>310.346</ele>
        <time>2019-09-20T09:41:30.001Z</time>
      </trkpt>
      <trkpt lat="49.95911" lon="4.38094">
        <ele>304.978</ele>
        <time>2019-09-20T09:42:00.000Z</time>
      </trkpt>
      <trkpt lat="49.95779" lon="4.38134">
        <ele>302.685</ele>
        <time>2019-09-20T09:42:30.001Z</time>
      </trkpt>
      <trkpt lat="49.95716" lon="4.38192">
        <ele>305.307</ele>
        <time>2019-09-20T09:43:00.000Z</time>
      </trkpt>
      <trkpt lat="49.95664" lon="4.38266">
        <ele>310.175</ele>
        <time>2019-09-20T09:43:30.001Z</time>
      </trkpt>
      <trkpt lat="49.95567" lon="4.38395">
        <ele>308.943</ele>
        <time>2019-09-20T09:44:00.000Z</time>
      </trkpt>
      <trkpt lat="49.9544" lon="4.38521">
        <ele>306.608</ele>
        <time>2019-09-20T09:44:30.001Z</time>
      </trkpt>
      <trkpt lat="49.95333" lon="4.38601">
        <ele>307.972</ele>
        <time>2019-09-20T09:45:00.000Z</time>
      </trkpt>
      <trkpt lat="49.95242" lon="4.38695">
        <ele>308.045</ele>
        <time>2019-09-20T09:45:30.001Z</time>
      </trkpt>
      <trkpt lat="49.95151" lon="4.38807">
        <ele>312.601</ele>
        <time>2019-09-20T09:46:00.000Z</time>
      </trkpt>
      <trkpt lat="49.95055" lon="4.38922">
        <ele>311.014</ele>
        <time>2019-09-20T09:46:30.001Z</time>
      </trkpt>
      <trkpt lat="49.94958" lon="4.39051">
        <ele>311.354</ele>
        <time>2019-09-20T09:47:00.000Z</time>
      </trkpt>
      <trkpt lat="49.94913" lon="4.39175">
        <ele>309.244</ele>
        <time>2019-09-20T09:47:30.001Z</time>
      </trkpt>
      <trkpt lat="49.94904" lon="4.39317">
        <ele>311.758</ele>
        <time>2019-09-20T09:48:00.000Z</time>
      </trkpt>
      <trkpt lat="49.94962" lon="4.39611">
        <ele>304.926</ele>
        <time>2019-09-20T09:48:30.001Z</time>
      </trkpt>
      <trkpt lat="49.94965" lon="4.3982">
        <ele>303.791</ele>
        <time>2019-09-20T09:49:00.000Z</time>
      </trkpt>
      <trkpt lat="49.94953" lon="4.4001">
        <ele>308.252</ele>
        <time>2019-09-20T09:49:30.001Z</time>
      </trkpt>
      <trkpt lat="49.94964" lon="4.40241">
        <ele>315.452</ele>
        <time>2019-09-20T09:50:00.000Z</time>
      </trkpt>
      <trkpt lat="49.9496" lon="4.40469">
        <ele>305.692</ele>
        <time>2019-09-20T09:50:30.001Z</time>
      </trkpt>
      <trkpt lat="49.94965" lon="4.40643">
        <ele>307.874</ele>
        <time>2019-09-20T09:51:00.000Z</time>
      </trkpt>
      <trkpt lat="49.94976" lon="4.40816">
        <ele>314.919</ele>
        <time>2019-09-20T09:51:30.001Z</time>
      </trkpt>
      <trkpt lat="49.9495" lon="4.40999">
        <ele>311.62</ele>
        <time>2019-09-20T09:52:00.000Z</time>
      </trkpt>
      <trkpt lat="49.94894" lon="4.41174">
        <ele>316.364</ele>
        <time>2019-09-20T09:52:30.001Z</time>
      </trkpt>
      <trkpt lat="49.94859" lon="4.41347">
        <ele>311.933</ele>
        <time>2019-09-20T09:53:00.000Z</time>
      </trkpt>
      <trkpt lat="49.9486" lon="4.4156">
        <ele>307.639</ele>
        <time>2019-09-20T09:53:30.001Z</time>
      </trkpt>
      <trkpt lat="49.94867" lon="4.41777">
        <ele>309.234</ele>
        <time>2019-09-20T09:54:00.000Z</time>
      </trkpt>
      <trkpt lat="49.94835" lon="4.41946">
        <ele>309.455</ele>
        <time>2019-09-20T09:54:30.001Z</time>
      </trkpt>
      <trkpt lat="49.94764" lon="4.42063">
        <ele>311.54</ele>
        <time>2019-09-20T09:55:00.000Z</time>
      </trkpt>
      <trkpt lat="49.94675" lon="4.4218">
        <ele>314.846</ele>
        <time>2019-09-20T09:55:30.001Z</time>
      </trkpt>
      <trkpt lat="49.94591" lon="4.42309">
        <ele>318.685</ele>
        <time>2019-09-20T09:56:00.000Z</time>
      </trkpt>
      <trkpt lat="49.94539" lon="4.42484">
        <ele>326.176</ele>
        <time>2019-09-20T09:56:30.001Z</time>
      </trkpt>
      <trkpt lat="49.94514" lon="4.42668">
        <ele>318.66</ele>
        <time>2019-09-20T09:57:00.000Z</time>
      </trkpt>
      <trkpt lat="49.94518" lon="4.4281">
        <ele>317.123</ele>
        <time>2019-09-20T09:57:30.001Z</time>
      </trkpt>
      <trkpt lat="49.94508" lon="4.42948">
        <ele>319.271</ele>
        <time>2019-09-20T09:58:00.000Z</time>
      </trkpt>
      <trkpt lat="49.94486" lon="4.43072">
        <ele>324.997</ele>
        <time>2019-09-20T09:58:30.001Z</time>
      </trkpt>
      <trkpt lat="49.94418" lon="4.43194">
        <ele>323.486</ele>
        <time>2019-09-20T09:59:00.000Z</time>
      </trkpt>
      <trkpt lat="49.94289" lon="4.43351">
        <ele>317.544</ele>
        <time>2019-09-20T09:59:30.001Z</time>
      </trkpt>
      <trkpt lat="49.94171" lon="4.43495">
        <ele>318.211</ele>
        <time>2019-09-20T10:00:00.000Z</time>
      </trkpt>
      <trkpt lat="49.9406" lon="4.43406">
        <ele>324.658</ele>
        <time>2019-09-20T10:00:30.001Z</time>
      </trkpt>
      <trkpt lat="49.93993" lon="4.43335">
        <ele>323.945</ele>
        <time>2019-09-20T10:01:00.000Z</time>
      </trkpt>
      <trkpt lat="49.93954" lon="4.43242">
        <ele>328.295</ele>
        <time>2019-09-20T10:01:30.001Z</time>
      </trkpt>
      <trkpt lat="49.93904" lon="4.43168">
        <ele>331.623</ele>
        <time>2019-09-20T10:02:00.000Z</time>
      </trkpt>
      <trkpt lat="49.93841" lon="4.43105">
        <ele>335.294</ele>
        <time>2019-09-20T10:02:30.001Z</time>
      </trkpt>
      <trkpt lat="49.93789" lon="4.43052">
        <ele>341.657</ele>
        <time>2019-09-20T10:03:00.000Z</time>
      </trkpt>
      <trkpt lat="49.93725" lon="4.4299">
        <ele>345.661</ele>
        <time>2019-09-20T10:03:30.001Z</time>
      </trkpt>
      <trkpt lat="49.93647" lon="4.42945">
        <ele>344.274</ele>
        <time>2019-09-20T10:04:00.000Z</time>
      </trkpt>
      <trkpt lat="49.93557" lon="4.42915">
        <ele>346.066</ele>
        <time>2019-09-20T10:04:30.001Z</time>
      </trkpt>
      <trkpt lat="49.93446" lon="4.4291">
        <ele>340.316</ele>
        <time>2019-09-20T10:05:00.000Z</time>
      </trkpt>
      <trkpt lat="49.93361" lon="4.43038">
        <ele>344.973</ele>
        <time>2019-09-20T10:05:30.001Z</time>
      </trkpt>
      <trkpt lat="49.93273" lon="4.43104">
        <ele>342.339</ele>
        <time>2019-09-20T10:06:00.000Z</time>
      </trkpt>
      <trkpt lat="49.9323" lon="4.43226">
        <ele>344.759</ele>
        <time>2019-09-20T10:06:30.001Z</time>
      </trkpt>
      <trkpt lat="49.93203" lon="4.43372">
        <ele>345.363</ele>
        <time>2019-09-20T10:07:00.000Z</time>
      </trkpt>
      <trkpt lat="49.93169" lon="4.43553">
        <ele>344.905</ele>
        <time>2019-09-20T10:07:30.001Z</time>
      </trkpt>
      <trkpt lat="49.9313" lon="4.43775">
        <ele>344.258</ele>
        <time>2019-09-20T10:08:00.000Z</time>
      </trkpt>
      <trkpt lat="49.93094" lon="4.43969">
        <ele>341.722</ele>
        <time>2019-09-20T10:08:30.001Z</time>
      </trkpt>
      <trkpt lat="49.93063" lon="4.44127">
        <ele>344.569</ele>
        <time>2019-09-20T10:09:00.000Z</time>
      </trkpt>
      <trkpt lat="49.93034" lon="4.44297">
        <ele>345.183</ele>
        <time>2019-09-20T10:09:30.001Z</time>
      </trkpt>
      <trkpt lat="49.92994" lon="4.44498">
        <ele>343.967</ele>
        <time>2019-09-20T10:10:00.000Z</time>
      </trkpt>
      <trkpt lat="49.92931" lon="4.44676">
        <ele>344.718</ele>
        <time>2019-09-20T10:10:30.001Z</time>
      </trkpt>
      <trkpt lat="49.92865" lon="4.44821">
        <ele>348.171</ele>
        <time>2019-09-20T10:11:00.000Z</time>
      </trkpt>
      <trkpt lat="49.92795" lon="4.44964">
        <ele>345.209</ele>
        <time>2019-09-20T10:11:30.001Z</time>
      </trkpt>
      <trkpt lat="49.92692" lon="4.45181">
        <ele>340.183</ele>
        <time>2019-09-20T10:12:00.000Z</time>
      </trkpt>
      <trkpt lat="49.92626" lon="4.45328">
        <ele>348.607</ele>
        <time>2019-09-20T10:12:30.001Z</time>
      </trkpt>
      <trkpt lat="49.92553" lon="4.45483">
        <ele>350.505</ele>
        <time>2019-09-20T10:13:00.000Z</time>
      </trkpt>
      <trkpt lat="49.92495" lon="4.45672">
        <ele>349.659</ele>
        <time>2019-09-20T10:13:30.001Z</time>
      </trkpt>
      <trkpt lat="49.92488" lon="4.45822">
        <ele>348.718</ele>
        <time>2019-09-20T10:14:00.000Z</time>
      </trkpt>
      <trkpt lat="49.92482" lon="4.45937">
        <ele>350.25</ele>
        <time>2019-09-20T10:14:30.001Z</time>
      </trkpt>
      <trkpt lat="49.9249" lon="4.46043">
        <ele>352.853</ele>
        <time>2019-09-20T10:15:00.000Z</time>
      </trkpt>
      <trkpt lat="49.92487" lon="4.46165">
        <ele>354.88</ele>
        <time>2019-09-20T10:15:30.001Z</time>
      </trkpt>
      <trkpt lat="49.9248" lon="4.46332">
        <ele>356.187</ele>
        <time>2019-09-20T10:16:00.000Z</time>
      </trkpt>
      <trkpt lat="49.92487" lon="4.46531">
        <ele>353.625</ele>
        <time>2019-09-20T10:16:30.001Z</time>
      </trkpt>
      <trkpt lat="49.92462" lon="4.46812">
        <ele>347.896</ele>
        <time>2019-09-20T10:17:00.000Z</time>
      </trkpt>
      <trkpt lat="49.92379" lon="4.47094">
        <ele>345.016</ele>
        <time>2019-09-20T10:17:30.001Z</time>
      </trkpt>
      <trkpt lat="49.92327" lon="4.47227">
        <ele>349.223</ele>
        <time>2019-09-20T10:18:00.000Z</time>
      </trkpt>
      <trkpt lat="49.9229" lon="4.47359">
        <ele>355.343</ele>
        <time>2019-09-20T10:18:30.001Z</time>
      </trkpt>
      <trkpt lat="49.92248" lon="4.47488">
        <ele>359.573</ele>
        <time>2019-09-20T10:19:00.000Z</time>
      </trkpt>
      <trkpt lat="49.92201" lon="4.47613">
        <ele>359.071</ele>
        <time>2019-09-20T10:19:30.001Z</time>
      </trkpt>
      <trkpt lat="49.92153" lon="4.47799">
        <ele>359.529</ele>
        <time>2019-09-20T10:20:00.000Z</time>
      </trkpt>
      <trkpt lat="49.92109" lon="4.48091">
        <ele>354.102</ele>
        <time>2019-09-20T10:20:30.001Z</time>
      </trkpt>
      <trkpt lat="49.92131" lon="4.48289">
        <ele>355.531</ele>
        <time>2019-09-20T10:21:00.000Z</time>
      </trkpt>
      <trkpt lat="49.92143" lon="4.4846">
        <ele>355.045</ele>
        <time>2019-09-20T10:21:30.001Z</time>
      </trkpt>
      <trkpt lat="49.92133" lon="4.48629">
        <ele>355.745</ele>
        <time>2019-09-20T10:22:00.000Z</time>
      </trkpt>
      <trkpt lat="49.92079" lon="4.4883">
        <ele>356.789</ele>
        <time>2019-09-20T10:22:30.001Z</time>
      </trkpt>
      <trkpt lat="49.91982" lon="4.48998">
        <ele>359.364</ele>
        <time>2019-09-20T10:23:00.000Z</time>
      </trkpt>
      <trkpt lat="49.92039" lon="4.49157">
        <ele>352.954</ele>
        <time>2019-09-20T10:23:30.001Z</time>
      </trkpt>
      <trkpt lat="49.9208" lon="4.49271">
        <ele>354.281</ele>
        <time>2019-09-20T10:24:00.000Z</time>
      </trkpt>
      <trkpt lat="49.9212" lon="4.4938">
        <ele>357.502</ele>
        <time>2019-09-20T10:24:30.001Z</time>
      </trkpt>
      <trkpt lat="49.92161" lon="4.49486">
        <ele>363.607</ele>
        <time>2019-09-20T10:25:00.000Z</time>
      </trkpt>
      <trkpt lat="49.9219" lon="4.496">
        <ele>364.587</ele>
        <time>2019-09-20T10:25:30.001Z</time>
      </trkpt>
      <trkpt lat="49.92221" lon="4.49711">
        <ele>365.688</ele>
        <time>2019-09-20T10:26:00.000Z</time>
      </trkpt>
      <trkpt lat="49.92256" lon="4.49843">
        <ele>371.688</ele>
        <time>2019-09-20T10:26:30.001Z</time>
      </trkpt>
      <trkpt lat="49.92286" lon="4.49971">
        <ele>370.76</ele>
        <time>2019-09-20T10:27:00.000Z</time>
      </trkpt>
      <trkpt lat="49.92303" lon="4.50113">
        <ele>372.292</ele>
        <time>2019-09-20T10:27:30.001Z</time>
      </trkpt>
      <trkpt lat="49.92283" lon="4.50271">
        <ele>373.925</ele>
        <time>2019-09-20T10:28:00.000Z</time>
      </trkpt>
      <trkpt lat="49.92261" lon="4.50433">
        <ele>375.078</ele>
        <time>2019-09-20T10:28:30.001Z</time>
      </trkpt>
      <trkpt lat="49.9224" lon="4.50596">
        <ele>381.038</ele>
        <time>2019-09-20T10:29:00.000Z</time>
      </trkpt>
      <trkpt lat="49.9221" lon="4.50762">
        <ele>383.429</ele>
        <time>2019-09-20T10:29:30.001Z</time>
      </trkpt>
      <trkpt lat="49.92168" lon="4.50903">
        <ele>383.244</ele>
        <time>2019-09-20T10:30:00.000Z</time>
      </trkpt>
      <trkpt lat="49.92153" lon="4.51056">
        <ele>383.601</ele>
        <time>2019-09-20T10:30:30.001Z</time>
      </trkpt>
      <trkpt lat="49.92141" lon="4.51223">
        <ele>381.903</ele>
        <time>2019-09-20T10:31:00.000Z</time>
      </trkpt>
      <trkpt lat="49.92143" lon="4.51383">
        <ele>378.797</ele>
        <time>2019-09-20T10:31:30.001Z</time>
      </trkpt>
      <trkpt lat="49.92167" lon="4.51541">
        <ele>383.499</ele>
        <time>2019-09-20T10:32:00.000Z</time>
      </trkpt>
      <trkpt lat="49.92222" lon="4.51686">
        <ele>384.568</ele>
        <time>2019-09-20T10:32:30.001Z</time>
      </trkpt>
      <trkpt lat="49.92289" lon="4.5181">
        <ele>384.706</ele>
        <time>2019-09-20T10:33:00.000Z</time>
      </trkpt>
      <trkpt lat="49.92407" lon="4.51911">
        <ele>382.171</ele>
        <time>2019-09-20T10:33:30.001Z</time>
      </trkpt>
      <trkpt lat="49.92473" lon="4.52011">
        <ele>390.185</ele>
        <time>2019-09-20T10:34:00.000Z</time>
      </trkpt>
      <trkpt lat="49.92525" lon="4.52052">
        <ele>390.619</ele>
        <time>2019-09-20T10:34:30.001Z</time>
      </trkpt>
      <trkpt lat="49.92524" lon="4.52049">
        <ele>389.725</ele>
        <time>2019-09-20T11:05:57.001Z</time>
      </trkpt>
      <trkpt lat="49.92526" lon="4.52063">
        <ele>389.396</ele>
        <time>2019-09-20T11:14:36.001Z</time>
      </trkpt>
      <trkpt lat="49.92533" lon="4.52054">
        <ele>388.981</ele>
        <time>2019-09-20T11:16:27.001Z</time>
      </trkpt>
      <trkpt lat="49.92525" lon="4.52053">
        <ele>397.377</ele>
        <time>2019-09-20T11:23:15.001Z</time>
      </trkpt>
      <trkpt lat="49.92513" lon="4.52035">
        <ele>399.16</ele>
        <time>2019-09-20T11:26:00.000Z</time>
      </trkpt>
      <trkpt lat="49.9245" lon="4.51969">
        <ele>393.342</ele>
        <time>2019-09-20T11:26:30.001Z</time>
      </trkpt>
      <trkpt lat="49.92363" lon="4.51847">
        <ele>384.785</ele>
        <time>2019-09-20T11:27:00.000Z</time>
      </trkpt>
      <trkpt lat="49.92298" lon="4.51808">
        <ele>382.469</ele>
        <time>2019-09-20T11:28:51.001Z</time>
      </trkpt>
      <trkpt lat="49.9224" lon="4.51794">
        <ele>385.333</ele>
        <time>2019-09-20T11:29:24.001Z</time>
      </trkpt>
      <trkpt lat="49.92146" lon="4.51901">
        <ele>387.463</ele>
        <time>2019-09-20T11:29:54.001Z</time>
      </trkpt>
      <trkpt lat="49.92044" lon="4.52011">
        <ele>382.778</ele>
        <time>2019-09-20T11:30:24.001Z</time>
      </trkpt>
      <trkpt lat="49.92034" lon="4.52191">
        <ele>382.494</ele>
        <time>2019-09-20T11:30:54.001Z</time>
      </trkpt>
      <trkpt lat="49.91939" lon="4.52331">
        <ele>380.16</ele>
        <time>2019-09-20T11:31:24.001Z</time>
      </trkpt>
      <trkpt lat="49.91845" lon="4.52477">
        <ele>382.125</ele>
        <time>2019-09-20T11:31:54.001Z</time>
      </trkpt>
      <trkpt lat="49.91736" lon="4.52673">
        <ele>385.235</ele>
        <time>2019-09-20T11:32:24.001Z</time>
      </trkpt>
      <trkpt lat="49.91577" lon="4.52915">
        <ele>375.699</ele>
        <time>2019-09-20T11:32:54.001Z</time>
      </trkpt>
      <trkpt lat="49.91337" lon="4.52959">
        <ele>368.477</ele>
        <time>2019-09-20T11:33:24.001Z</time>
      </trkpt>
      <trkpt lat="49.91178" lon="4.52899">
        <ele>367.581</ele>
        <time>2019-09-20T11:33:54.001Z</time>
      </trkpt>
      <trkpt lat="49.91046" lon="4.52925">
        <ele>370.109</ele>
        <time>2019-09-20T11:34:24.001Z</time>
      </trkpt>
      <trkpt lat="49.90839" lon="4.52976">
        <ele>365.612</ele>
        <time>2019-09-20T11:34:54.001Z</time>
      </trkpt>
      <trkpt lat="49.90641" lon="4.53097">
        <ele>359.83</ele>
        <time>2019-09-20T11:35:24.001Z</time>
      </trkpt>
      <trkpt lat="49.90416" lon="4.53232">
        <ele>348.647</ele>
        <time>2019-09-20T11:35:54.001Z</time>
      </trkpt>
      <trkpt lat="49.90131" lon="4.5337">
        <ele>338.801</ele>
        <time>2019-09-20T11:36:24.001Z</time>
      </trkpt>
      <trkpt lat="49.8998" lon="4.53543">
        <ele>337.99</ele>
        <time>2019-09-20T11:36:54.001Z</time>
      </trkpt>
      <trkpt lat="49.89911" lon="4.53602">
        <ele>343.419</ele>
        <time>2019-09-20T11:37:24.001Z</time>
      </trkpt>
      <trkpt lat="49.89853" lon="4.5365">
        <ele>351.906</ele>
        <time>2019-09-20T11:37:54.001Z</time>
      </trkpt>
      <trkpt lat="49.89795" lon="4.53694">
        <ele>356.274</ele>
        <time>2019-09-20T11:38:24.001Z</time>
      </trkpt>
      <trkpt lat="49.89736" lon="4.53729">
        <ele>357.48</ele>
        <time>2019-09-20T11:38:54.001Z</time>
      </trkpt>
      <trkpt lat="49.89678" lon="4.5375">
        <ele>359.154</ele>
        <time>2019-09-20T11:39:24.001Z</time>
      </trkpt>
      <trkpt lat="49.89618" lon="4.53758">
        <ele>364.276</ele>
        <time>2019-09-20T11:39:57.001Z</time>
      </trkpt>
      <trkpt lat="49.89566" lon="4.5376">
        <ele>371.351</ele>
        <time>2019-09-20T11:40:27.001Z</time>
      </trkpt>
      <trkpt lat="49.89499" lon="4.53762">
        <ele>376.062</ele>
        <time>2019-09-20T11:40:57.001Z</time>
      </trkpt>
      <trkpt lat="49.89416" lon="4.53763">
        <ele>379.514</ele>
        <time>2019-09-20T11:41:27.001Z</time>
      </trkpt>
      <trkpt lat="49.89329" lon="4.538">
        <ele>376.61</ele>
        <time>2019-09-20T11:41:57.001Z</time>
      </trkpt>
      <trkpt lat="49.89247" lon="4.53964">
        <ele>373.426</ele>
        <time>2019-09-20T11:42:27.001Z</time>
      </trkpt>
      <trkpt lat="49.8908" lon="4.53915">
        <ele>371.645</ele>
        <time>2019-09-20T11:42:57.001Z</time>
      </trkpt>
      <trkpt lat="49.88927" lon="4.54022">
        <ele>361.013</ele>
        <time>2019-09-20T11:43:27.001Z</time>
      </trkpt>
      <trkpt lat="49.8885" lon="4.54026">
        <ele>366.077</ele>
        <time>2019-09-20T11:43:57.001Z</time>
      </trkpt>
      <trkpt lat="49.88775" lon="4.54054">
        <ele>366.814</ele>
        <time>2019-09-20T11:44:27.001Z</time>
      </trkpt>
      <trkpt lat="49.88685" lon="4.54108">
        <ele>368.021</ele>
        <time>2019-09-20T11:44:57.001Z</time>
      </trkpt>
      <trkpt lat="49.88587" lon="4.54155">
        <ele>371.911</ele>
        <time>2019-09-20T11:45:27.001Z</time>
      </trkpt>
      <trkpt lat="49.88371" lon="4.5421">
        <ele>362.194</ele>
        <time>2019-09-20T11:45:57.001Z</time>
      </trkpt>
      <trkpt lat="49.88077" lon="4.54048">
        <ele>349.185</ele>
        <time>2019-09-20T11:46:27.001Z</time>
      </trkpt>
      <trkpt lat="49.87859" lon="4.54084">
        <ele>342.166</ele>
        <time>2019-09-20T11:46:57.001Z</time>
      </trkpt>
      <trkpt lat="49.87673" lon="4.54114">
        <ele>341.838</ele>
        <time>2019-09-20T11:47:27.001Z</time>
      </trkpt>
      <trkpt lat="49.87575" lon="4.54131">
        <ele>350.985</ele>
        <time>2019-09-20T11:47:57.001Z</time>
      </trkpt>
      <trkpt lat="49.8749" lon="4.54144">
        <ele>355.167</ele>
        <time>2019-09-20T11:48:27.001Z</time>
      </trkpt>
      <trkpt lat="49.87417" lon="4.54158">
        <ele>362.742</ele>
        <time>2019-09-20T11:48:57.001Z</time>
      </trkpt>
      <trkpt lat="49.87343" lon="4.54171">
        <ele>372.089</ele>
        <time>2019-09-20T11:49:27.001Z</time>
      </trkpt>
      <trkpt lat="49.87256" lon="4.5418">
        <ele>374.892</ele>
        <time>2019-09-20T11:49:57.001Z</time>
      </trkpt>
      <trkpt lat="49.87063" lon="4.54213">
        <ele>374.178</ele>
        <time>2019-09-20T11:50:27.001Z</time>
      </trkpt>
      <trkpt lat="49.86741" lon="4.54264">
        <ele>349.372</ele>
        <time>2019-09-20T11:50:57.001Z</time>
      </trkpt>
      <trkpt lat="49.86414" lon="4.5431">
        <ele>324.251</ele>
        <time>2019-09-20T11:51:27.001Z</time>
      </trkpt>
      <trkpt lat="49.86234" lon="4.54385">
        <ele>323.879</ele>
        <time>2019-09-20T11:51:57.001Z</time>
      </trkpt>
      <trkpt lat="49.86192" lon="4.54486">
        <ele>332.973</ele>
        <time>2019-09-20T11:52:27.001Z</time>
      </trkpt>
      <trkpt lat="49.86144" lon="4.54554">
        <ele>349.965</ele>
        <time>2019-09-20T11:52:57.001Z</time>
      </trkpt>
      <trkpt lat="49.8608" lon="4.54594">
        <ele>359.369</ele>
        <time>2019-09-20T11:53:27.001Z</time>
      </trkpt>
      <trkpt lat="49.86005" lon="4.5462">
        <ele>358.471</ele>
        <time>2019-09-20T11:53:57.001Z</time>
      </trkpt>
      <trkpt lat="49.85816" lon="4.54621">
        <ele>340.112</ele>
        <time>2019-09-20T11:54:27.001Z</time>
      </trkpt>
      <trkpt lat="49.85646" lon="4.55073">
        <ele>315.296</ele>
        <time>2019-09-20T11:54:57.001Z</time>
      </trkpt>
      <trkpt lat="49.8548" lon="4.55621">
        <ele>282.567</ele>
        <time>2019-09-20T11:55:27.001Z</time>
      </trkpt>
      <trkpt lat="49.85143" lon="4.55731">
        <ele>259.01</ele>
        <time>2019-09-20T11:55:57.001Z</time>
      </trkpt>
      <trkpt lat="49.85033" lon="4.55762">
        <ele>268.84</ele>
        <time>2019-09-20T11:56:27.001Z</time>
      </trkpt>
      <trkpt lat="49.85" lon="4.55877">
        <ele>274.202</ele>
        <time>2019-09-20T11:56:57.001Z</time>
      </trkpt>
      <trkpt lat="49.84972" lon="4.55994">
        <ele>279.325</ele>
        <time>2019-09-20T11:57:27.001Z</time>
      </trkpt>
      <trkpt lat="49.84951" lon="4.56111">
        <ele>281.682</ele>
        <time>2019-09-20T11:57:57.001Z</time>
      </trkpt>
      <trkpt lat="49.84931" lon="4.56229">
        <ele>284.83</ele>
        <time>2019-09-20T11:58:27.001Z</time>
      </trkpt>
      <trkpt lat="49.84905" lon="4.56349">
        <ele>285.321</ele>
        <time>2019-09-20T11:58:57.001Z</time>
      </trkpt>
      <trkpt lat="49.84865" lon="4.56462">
        <ele>289.827</ele>
        <time>2019-09-20T11:59:27.001Z</time>
      </trkpt>
      <trkpt lat="49.84776" lon="4.56592">
        <ele>303.198</ele>
        <time>2019-09-20T11:59:57.001Z</time>
      </trkpt>
      <trkpt lat="49.84641" lon="4.56824">
        <ele>281.536</ele>
        <time>2019-09-20T12:00:27.001Z</time>
      </trkpt>
      <trkpt lat="49.84536" lon="4.57049">
        <ele>274.343</ele>
        <time>2019-09-20T12:00:57.001Z</time>
      </trkpt>
      <trkpt lat="49.84436" lon="4.57312">
        <ele>268.986</ele>
        <time>2019-09-20T12:01:27.001Z</time>
      </trkpt>
      <trkpt lat="49.84406" lon="4.57505">
        <ele>273.244</ele>
        <time>2019-09-20T12:01:57.001Z</time>
      </trkpt>
      <trkpt lat="49.84394" lon="4.57719">
        <ele>278.622</ele>
        <time>2019-09-20T12:02:27.001Z</time>
      </trkpt>
      <trkpt lat="49.84351" lon="4.57929">
        <ele>279.677</ele>
        <time>2019-09-20T12:02:57.001Z</time>
      </trkpt>
      <trkpt lat="49.84311" lon="4.58177">
        <ele>275.353</ele>
        <time>2019-09-20T12:03:27.001Z</time>
      </trkpt>
      <trkpt lat="49.8428" lon="4.58423">
        <ele>280.267</ele>
        <time>2019-09-20T12:03:57.001Z</time>
      </trkpt>
      <trkpt lat="49.84262" lon="4.5861">
        <ele>273.82</ele>
        <time>2019-09-20T12:04:27.001Z</time>
      </trkpt>
      <trkpt lat="49.84263" lon="4.58738">
        <ele>276.987</ele>
        <time>2019-09-20T12:04:57.001Z</time>
      </trkpt>
      <trkpt lat="49.84262" lon="4.5886">
        <ele>279.26</ele>
        <time>2019-09-20T12:05:27.001Z</time>
      </trkpt>
      <trkpt lat="49.84274" lon="4.5898">
        <ele>281.963</ele>
        <time>2019-09-20T12:05:57.001Z</time>
      </trkpt>
      <trkpt lat="49.84291" lon="4.59103">
        <ele>283.844</ele>
        <time>2019-09-20T12:06:27.001Z</time>
      </trkpt>
      <trkpt lat="49.84278" lon="4.59217">
        <ele>286.893</ele>
        <time>2019-09-20T12:06:57.001Z</time>
      </trkpt>
      <trkpt lat="49.84213" lon="4.59413">
        <ele>285.781</ele>
        <time>2019-09-20T12:07:27.001Z</time>
      </trkpt>
      <trkpt lat="49.84157" lon="4.59678">
        <ele>282.615</ele>
        <time>2019-09-20T12:07:57.001Z</time>
      </trkpt>
      <trkpt lat="49.8416" lon="4.60055">
        <ele>270.204</ele>
        <time>2019-09-20T12:08:27.001Z</time>
      </trkpt>
      <trkpt lat="49.84042" lon="4.60194">
        <ele>271.35</ele>
        <time>2019-09-20T12:08:57.001Z</time>
      </trkpt>
      <trkpt lat="49.83969" lon="4.60221">
        <ele>282.092</ele>
        <time>2019-09-20T12:09:27.001Z</time>
      </trkpt>
      <trkpt lat="49.83892" lon="4.60256">
        <ele>289.745</ele>
        <time>2019-09-20T12:09:57.001Z</time>
      </trkpt>
      <trkpt lat="49.83765" lon="4.60334">
        <ele>283.969</ele>
        <time>2019-09-20T12:10:27.001Z</time>
      </trkpt>
      <trkpt lat="49.8362" lon="4.60378">
        <ele>279.402</ele>
        <time>2019-09-20T12:10:57.001Z</time>
      </trkpt>
      <trkpt lat="49.83553" lon="4.60495">
        <ele>278.39</ele>
        <time>2019-09-20T12:11:27.001Z</time>
      </trkpt>
      <trkpt lat="49.83537" lon="4.60642">
        <ele>281.017</ele>
        <time>2019-09-20T12:11:57.001Z</time>
      </trkpt>
      <trkpt lat="49.83519" lon="4.60781">
        <ele>283.362</ele>
        <time>2019-09-20T12:12:27.001Z</time>
      </trkpt>
      <trkpt lat="49.83511" lon="4.6104">
        <ele>278.065</ele>
        <time>2019-09-20T12:12:57.001Z</time>
      </trkpt>
      <trkpt lat="49.83466" lon="4.61298">
        <ele>270.086</ele>
        <time>2019-09-20T12:13:27.001Z</time>
      </trkpt>
      <trkpt lat="49.83402" lon="4.61617">
        <ele>264.86</ele>
        <time>2019-09-20T12:13:57.001Z</time>
      </trkpt>
      <trkpt lat="49.83337" lon="4.61911">
        <ele>257.948</ele>
        <time>2019-09-20T12:14:27.001Z</time>
      </trkpt>
      <trkpt lat="49.83301" lon="4.62178">
        <ele>254.677</ele>
        <time>2019-09-20T12:14:57.001Z</time>
      </trkpt>
      <trkpt lat="49.83292" lon="4.62355">
        <ele>258.869</ele>
        <time>2019-09-20T12:15:27.001Z</time>
      </trkpt>
      <trkpt lat="49.83363" lon="4.6255">
        <ele>261.292</ele>
        <time>2019-09-20T12:15:57.001Z</time>
      </trkpt>
      <trkpt lat="49.83286" lon="4.62655">
        <ele>263.868</ele>
        <time>2019-09-20T12:16:27.001Z</time>
      </trkpt>
      <trkpt lat="49.83179" lon="4.6286">
        <ele>258.973</ele>
        <time>2019-09-20T12:16:57.001Z</time>
      </trkpt>
      <trkpt lat="49.83051" lon="4.62879">
        <ele>261.852</ele>
        <time>2019-09-20T12:17:27.001Z</time>
      </trkpt>
      <trkpt lat="49.83047" lon="4.62831">
        <ele>255.061</ele>
        <time>2019-09-20T12:18:03.001Z</time>
      </trkpt>
      <trkpt lat="49.83044" lon="4.62874">
        <ele>255.092</ele>
        <time>2019-09-20T12:20:00.000Z</time>
      </trkpt>
      <trkpt lat="49.82951" lon="4.62885">
        <ele>258.693</ele>
        <time>2019-09-20T12:20:36.001Z</time>
      </trkpt>
      <trkpt lat="49.82913" lon="4.62983">
        <ele>258.36</ele>
        <time>2019-09-20T12:21:06.001Z</time>
      </trkpt>
      <trkpt lat="49.82875" lon="4.63089">
        <ele>257.937</ele>
        <time>2019-09-20T12:21:36.001Z</time>
      </trkpt>
      <trkpt lat="49.82851" lon="4.63292">
        <ele>254.519</ele>
        <time>2019-09-20T12:22:06.001Z</time>
      </trkpt>
      <trkpt lat="49.82829" lon="4.63546">
        <ele>254.353</ele>
        <time>2019-09-20T12:22:36.001Z</time>
      </trkpt>
      <trkpt lat="49.82804" lon="4.63736">
        <ele>253.275</ele>
        <time>2019-09-20T12:23:06.001Z</time>
      </trkpt>
      <trkpt lat="49.827" lon="4.6428">
        <ele>221.818</ele>
        <time>2019-09-20T12:23:36.001Z</time>
      </trkpt>
      <trkpt lat="49.82557" lon="4.64644">
        <ele>195.271</ele>
        <time>2019-09-20T12:24:06.001Z</time>
      </trkpt>
      <trkpt lat="49.82511" lon="4.64705">
        <ele>205.049</ele>
        <time>2019-09-20T12:24:36.001Z</time>
      </trkpt>
      <trkpt lat="49.82487" lon="4.6479">
        <ele>224.484</ele>
        <time>2019-09-20T12:25:12.001Z</time>
      </trkpt>
      <trkpt lat="49.82457" lon="4.64871">
        <ele>234.86</ele>
        <time>2019-09-20T12:25:51.001Z</time>
      </trkpt>
      <trkpt lat="49.82435" lon="4.64968">
        <ele>247.217</ele>
        <time>2019-09-20T12:26:36.001Z</time>
      </trkpt>
      <trkpt lat="49.82411" lon="4.65056">
        <ele>247.268</ele>
        <time>2019-09-20T12:27:15.001Z</time>
      </trkpt>
      <trkpt lat="49.82374" lon="4.65133">
        <ele>251.642</ele>
        <time>2019-09-20T12:27:51.001Z</time>
      </trkpt>
      <trkpt lat="49.8236" lon="4.65224">
        <ele>254.683</ele>
        <time>2019-09-20T12:28:21.001Z</time>
      </trkpt>
      <trkpt lat="49.82362" lon="4.65338">
        <ele>259.106</ele>
        <time>2019-09-20T12:28:51.001Z</time>
      </trkpt>
      <trkpt lat="49.82334" lon="4.65431">
        <ele>259.69</ele>
        <time>2019-09-20T12:29:21.001Z</time>
      </trkpt>
      <trkpt lat="49.8229" lon="4.65501">
        <ele>265.053</ele>
        <time>2019-09-20T12:29:51.001Z</time>
      </trkpt>
      <trkpt lat="49.82245" lon="4.6558">
        <ele>264.281</ele>
        <time>2019-09-20T12:30:21.001Z</time>
      </trkpt>
      <trkpt lat="49.82216" lon="4.65675">
        <ele>264.767</ele>
        <time>2019-09-20T12:30:51.001Z</time>
      </trkpt>
      <trkpt lat="49.82186" lon="4.65784">
        <ele>267.852</ele>
        <time>2019-09-20T12:31:21.001Z</time>
      </trkpt>
      <trkpt lat="49.82148" lon="4.65923">
        <ele>269.605</ele>
        <time>2019-09-20T12:31:51.001Z</time>
      </trkpt>
      <trkpt lat="49.82104" lon="4.66083">
        <ele>268.396</ele>
        <time>2019-09-20T12:32:21.001Z</time>
      </trkpt>
      <trkpt lat="49.82075" lon="4.66254">
        <ele>269.567</ele>
        <time>2019-09-20T12:32:51.001Z</time>
      </trkpt>
      <trkpt lat="49.82056" lon="4.66379">
        <ele>274.155</ele>
        <time>2019-09-20T12:33:21.001Z</time>
      </trkpt>
      <trkpt lat="49.81966" lon="4.66583">
        <ele>268.851</ele>
        <time>2019-09-20T12:33:51.001Z</time>
      </trkpt>
      <trkpt lat="49.81835" lon="4.6669">
        <ele>262.293</ele>
        <time>2019-09-20T12:34:21.001Z</time>
      </trkpt>
      <trkpt lat="49.8162" lon="4.66798">
        <ele>247.55</ele>
        <time>2019-09-20T12:34:51.001Z</time>
      </trkpt>
      <trkpt lat="49.81451" lon="4.66761">
        <ele>243.057</ele>
        <time>2019-09-20T12:35:21.001Z</time>
      </trkpt>
      <trkpt lat="49.81358" lon="4.66801">
        <ele>248.976</ele>
        <time>2019-09-20T12:35:51.001Z</time>
      </trkpt>
      <trkpt lat="49.8118" lon="4.66918">
        <ele>234.466</ele>
        <time>2019-09-20T12:36:21.001Z</time>
      </trkpt>
      <trkpt lat="49.80982" lon="4.67018">
        <ele>212.255</ele>
        <time>2019-09-20T12:36:51.001Z</time>
      </trkpt>
      <trkpt lat="49.80892" lon="4.67001">
        <ele>217.374</ele>
        <time>2019-09-20T12:37:21.001Z</time>
      </trkpt>
      <trkpt lat="49.80827" lon="4.66964">
        <ele>228.904</ele>
        <time>2019-09-20T12:37:54.001Z</time>
      </trkpt>
      <trkpt lat="49.80755" lon="4.66921">
        <ele>235.85</ele>
        <time>2019-09-20T12:38:24.001Z</time>
      </trkpt>
      <trkpt lat="49.80677" lon="4.66893">
        <ele>229.454</ele>
        <time>2019-09-20T12:38:54.001Z</time>
      </trkpt>
      <trkpt lat="49.80451" lon="4.66918">
        <ele>216.713</ele>
        <time>2019-09-20T12:39:24.001Z</time>
      </trkpt>
      <trkpt lat="49.80325" lon="4.66894">
        <ele>218.704</ele>
        <time>2019-09-20T12:39:54.001Z</time>
      </trkpt>
      <trkpt lat="49.80224" lon="4.66963">
        <ele>218.002</ele>
        <time>2019-09-20T12:40:24.001Z</time>
      </trkpt>
      <trkpt lat="49.80085" lon="4.67034">
        <ele>216.441</ele>
        <time>2019-09-20T12:40:54.001Z</time>
      </trkpt>
      <trkpt lat="49.79887" lon="4.67021">
        <ele>214.992</ele>
        <time>2019-09-20T12:41:24.001Z</time>
      </trkpt>
      <trkpt lat="49.79643" lon="4.66976">
        <ele>201.821</ele>
        <time>2019-09-20T12:41:54.001Z</time>
      </trkpt>
      <trkpt lat="49.79636" lon="4.66973">
        <ele>201.017</ele>
        <time>2019-09-20T12:43:15.001Z</time>
      </trkpt>
      <trkpt lat="49.79572" lon="4.66982">
        <ele>201.828</ele>
        <time>2019-09-20T12:43:54.001Z</time>
      </trkpt>
      <trkpt lat="49.79459" lon="4.67094">
        <ele>200.348</ele>
        <time>2019-09-20T12:44:24.001Z</time>
      </trkpt>
      <trkpt lat="49.7932" lon="4.67277">
        <ele>195.571</ele>
        <time>2019-09-20T12:44:54.001Z</time>
      </trkpt>
      <trkpt lat="49.79214" lon="4.67413">
        <ele>197.613</ele>
        <time>2019-09-20T12:45:24.001Z</time>
      </trkpt>
      <trkpt lat="49.79048" lon="4.67486">
        <ele>194.967</ele>
        <time>2019-09-20T12:45:54.001Z</time>
      </trkpt>
      <trkpt lat="49.78902" lon="4.67472">
        <ele>196.416</ele>
        <time>2019-09-20T12:46:24.001Z</time>
      </trkpt>
      <trkpt lat="49.78703" lon="4.67674">
        <ele>190.398</ele>
        <time>2019-09-20T12:46:54.001Z</time>
      </trkpt>
      <trkpt lat="49.78589" lon="4.67805">
        <ele>185.934</ele>
        <time>2019-09-20T12:47:24.001Z</time>
      </trkpt>
      <trkpt lat="49.7854" lon="4.67974">
        <ele>189.373</ele>
        <time>2019-09-20T12:47:54.001Z</time>
      </trkpt>
      <trkpt lat="49.78472" lon="4.68145">
        <ele>191.109</ele>
        <time>2019-09-20T12:48:24.001Z</time>
      </trkpt>
      <trkpt lat="49.78382" lon="4.68345">
        <ele>189.686</ele>
        <time>2019-09-20T12:48:54.001Z</time>
      </trkpt>
      <trkpt lat="49.78301" lon="4.68524">
        <ele>185.89</ele>
        <time>2019-09-20T12:49:24.001Z</time>
      </trkpt>
      <trkpt lat="49.7821" lon="4.68725">
        <ele>178.782</ele>
        <time>2019-09-20T12:49:54.001Z</time>
      </trkpt>
      <trkpt lat="49.78133" lon="4.68901">
        <ele>176.225</ele>
        <time>2019-09-20T12:50:24.001Z</time>
      </trkpt>
      <trkpt lat="49.7804" lon="4.69109">
        <ele>170.896</ele>
        <time>2019-09-20T12:50:54.001Z</time>
      </trkpt>
      <trkpt lat="49.77978" lon="4.69243">
        <ele>167.927</ele>
        <time>2019-09-20T12:51:27.001Z</time>
      </trkpt>
      <trkpt lat="49.77893" lon="4.69415">
        <ele>169.444</ele>
        <time>2019-09-20T12:51:57.001Z</time>
      </trkpt>
      <trkpt lat="49.77856" lon="4.69486">
        <ele>168.035</ele>
        <time>2019-09-20T12:52:39.001Z</time>
      </trkpt>
      <trkpt lat="49.77783" lon="4.69637">
        <ele>173.298</ele>
        <time>2019-09-20T12:53:09.001Z</time>
      </trkpt>
      <trkpt lat="49.77729" lon="4.6974">
        <ele>176.905</ele>
        <time>2019-09-20T12:53:39.001Z</time>
      </trkpt>
      <trkpt lat="49.77682" lon="4.69837">
        <ele>183.616</ele>
        <time>2019-09-20T12:54:09.001Z</time>
      </trkpt>
      <trkpt lat="49.77625" lon="4.69945">
        <ele>188.411</ele>
        <time>2019-09-20T12:54:39.001Z</time>
      </trkpt>
      <trkpt lat="49.77562" lon="4.70081">
        <ele>187.564</ele>
        <time>2019-09-20T12:55:09.001Z</time>
      </trkpt>
      <trkpt lat="49.77487" lon="4.70231">
        <ele>183.447</ele>
        <time>2019-09-20T12:55:39.001Z</time>
      </trkpt>
      <trkpt lat="49.77416" lon="4.70371">
        <ele>181.287</ele>
        <time>2019-09-20T12:56:09.001Z</time>
      </trkpt>
      <trkpt lat="49.77358" lon="4.70495">
        <ele>183.303</ele>
        <time>2019-09-20T12:56:39.001Z</time>
      </trkpt>
      <trkpt lat="49.77262" lon="4.70685">
        <ele>186.739</ele>
        <time>2019-09-20T12:57:09.001Z</time>
      </trkpt>
      <trkpt lat="49.77138" lon="4.70916">
        <ele>179.195</ele>
        <time>2019-09-20T12:57:39.001Z</time>
      </trkpt>
      <trkpt lat="49.77063" lon="4.71083">
        <ele>169.541</ele>
        <time>2019-09-20T12:58:09.001Z</time>
      </trkpt>
      <trkpt lat="49.76919" lon="4.70882">
        <ele>155.992</ele>
        <time>2019-09-20T12:58:39.001Z</time>
      </trkpt>
      <trkpt lat="49.76736" lon="4.70678">
        <ele>149.538</ele>
        <time>2019-09-20T12:59:09.001Z</time>
      </trkpt>
      <trkpt lat="49.76521" lon="4.70517">
        <ele>143.204</ele>
        <time>2019-09-20T12:59:39.001Z</time>
      </trkpt>
      <trkpt lat="49.76437" lon="4.70295">
        <ele>141.469</ele>
        <time>2019-09-20T13:00:09.001Z</time>
      </trkpt>
      <trkpt lat="49.76442" lon="4.70097">
        <ele>144.223</ele>
        <time>2019-09-20T13:00:39.001Z</time>
      </trkpt>
      <trkpt lat="49.76352" lon="4.70064">
        <ele>153.419</ele>
        <time>2019-09-20T13:01:09.001Z</time>
      </trkpt>
      <trkpt lat="49.76304" lon="4.70176">
        <ele>156.775</ele>
        <time>2019-09-20T13:01:39.001Z</time>
      </trkpt>
      <trkpt lat="49.76255" lon="4.70376">
        <ele>154.282</ele>
        <time>2019-09-20T13:02:09.001Z</time>
      </trkpt>
      <trkpt lat="49.76209" lon="4.70565">
        <ele>159.042</ele>
        <time>2019-09-20T13:02:39.001Z</time>
      </trkpt>
      <trkpt lat="49.76179" lon="4.70679">
        <ele>157.615</ele>
        <time>2019-09-20T13:08:42.001Z</time>
      </trkpt>
      <trkpt lat="49.76163" lon="4.70824">
        <ele>159.811</ele>
        <time>2019-09-20T13:09:12.001Z</time>
      </trkpt>
      <trkpt lat="49.7615" lon="4.70978">
        <ele>165.041</ele>
        <time>2019-09-20T13:09:42.001Z</time>
      </trkpt>
      <trkpt lat="49.76139" lon="4.71147">
        <ele>162.411</ele>
        <time>2019-09-20T13:10:12.001Z</time>
      </trkpt>
      <trkpt lat="49.76129" lon="4.71329">
        <ele>168.894</ele>
        <time>2019-09-20T13:10:42.001Z</time>
      </trkpt>
      <trkpt lat="49.76068" lon="4.71481">
        <ele>163.992</ele>
        <time>2019-09-20T13:11:12.001Z</time>
      </trkpt>
      <trkpt lat="49.75984" lon="4.71698">
        <ele>151.868</ele>
        <time>2019-09-20T13:11:42.001Z</time>
      </trkpt>
      <trkpt lat="49.7588" lon="4.71751">
        <ele>144.491</ele>
        <time>2019-09-20T13:12:12.001Z</time>
      </trkpt>
      <trkpt lat="49.75852" lon="4.71866">
        <ele>154.394</ele>
        <time>2019-09-20T13:12:42.001Z</time>
      </trkpt>
      <trkpt lat="49.75961" lon="4.71916">
        <ele>152.586</ele>
        <time>2019-09-20T13:13:12.001Z</time>
      </trkpt>
      <trkpt lat="49.75969" lon="4.72041">
        <ele>163.537</ele>
        <time>2019-09-20T13:13:42.001Z</time>
      </trkpt>
      <trkpt lat="49.75894" lon="4.72176">
        <ele>158.707</ele>
        <time>2019-09-20T13:14:12.001Z</time>
      </trkpt>
      <trkpt lat="49.75862" lon="4.72269">
        <ele>156.181</ele>
        <time>2019-09-20T13:14:45.001Z</time>
      </trkpt>
      <trkpt lat="49.75834" lon="4.72453">
        <ele>158.389</ele>
        <time>2019-09-20T13:15:15.001Z</time>
      </trkpt>
      <trkpt lat="49.75858" lon="4.72607">
        <ele>149.617</ele>
        <time>2019-09-20T13:15:45.001Z</time>
      </trkpt>
      <trkpt lat="49.7587" lon="4.72643">
        <ele>152.296</ele>
        <time>2019-09-20T13:16:51.001Z</time>
      </trkpt>
      <trkpt lat="49.75797" lon="4.7264">
        <ele>150.196</ele>
        <time>2019-09-20T13:17:21.001Z</time>
      </trkpt>
      <trkpt lat="49.75785" lon="4.72622">
        <ele>148.72</ele>
        <time>2019-09-20T13:21:57.001Z</time>
      </trkpt>
      <trkpt lat="49.75781" lon="4.72626">
        <ele>147.002</ele>
        <time>2019-09-20T13:35:21.001Z</time>
      </trkpt>
      <trkpt lat="49.75811" lon="4.7268">
        <ele>150.43</ele>
        <time>2019-09-20T13:47:09.001Z</time>
      </trkpt>
      <trkpt lat="49.75894" lon="4.72743">
        <ele>152.591</ele>
        <time>2019-09-20T13:47:39.001Z</time>
      </trkpt>
      <trkpt lat="49.75871" lon="4.72883">
        <ele>146.779</ele>
        <time>2019-09-20T13:48:09.001Z</time>
      </trkpt>
      <trkpt lat="49.75756" lon="4.72922">
        <ele>150.121</ele>
        <time>2019-09-20T13:48:39.001Z</time>
      </trkpt>
      <trkpt lat="49.75673" lon="4.73074">
        <ele>141.374</ele>
        <time>2019-09-20T13:49:09.001Z</time>
      </trkpt>
      <trkpt lat="49.75637" lon="4.73219">
        <ele>138.266</ele>
        <time>2019-09-20T13:49:39.001Z</time>
      </trkpt>
      <trkpt lat="49.75595" lon="4.73448">
        <ele>144.956</ele>
        <time>2019-09-20T13:50:09.001Z</time>
      </trkpt>
      <trkpt lat="49.75585" lon="4.73689">
        <ele>137.923</ele>
        <time>2019-09-20T13:50:39.001Z</time>
      </trkpt>
      <trkpt lat="49.7562" lon="4.73928">
        <ele>130.126</ele>
        <time>2019-09-20T13:51:09.001Z</time>
      </trkpt>
      <trkpt lat="49.75651" lon="4.74166">
        <ele>130.555</ele>
        <time>2019-09-20T13:51:39.001Z</time>
      </trkpt>
      <trkpt lat="49.75649" lon="4.74414">
        <ele>130.854</ele>
        <time>2019-09-20T13:52:09.001Z</time>
      </trkpt>
      <trkpt lat="49.75636" lon="4.74674">
        <ele>132.271</ele>
        <time>2019-09-20T13:52:39.001Z</time>
      </trkpt>
      <trkpt lat="49.7562" lon="4.74922">
        <ele>129.058</ele>
        <time>2019-09-20T13:53:09.001Z</time>
      </trkpt>
      <trkpt lat="49.75604" lon="4.75151">
        <ele>138.314</ele>
        <time>2019-09-20T13:53:39.001Z</time>
      </trkpt>
      <trkpt lat="49.75575" lon="4.75386">
        <ele>146.391</ele>
        <time>2019-09-20T13:54:09.001Z</time>
      </trkpt>
      <trkpt lat="49.75526" lon="4.75643">
        <ele>144.71</ele>
        <time>2019-09-20T13:54:39.001Z</time>
      </trkpt>
      <trkpt lat="49.75452" lon="4.75837">
        <ele>140.654</ele>
        <time>2019-09-20T13:55:09.001Z</time>
      </trkpt>
      <trkpt lat="49.75366" lon="4.7599">
        <ele>142.862</ele>
        <time>2019-09-20T13:55:39.001Z</time>
      </trkpt>
      <trkpt lat="49.75291" lon="4.76128">
        <ele>141.92</ele>
        <time>2019-09-20T13:56:09.001Z</time>
      </trkpt>
      <trkpt lat="49.75208" lon="4.76298">
        <ele>142.482</ele>
        <time>2019-09-20T13:56:39.001Z</time>
      </trkpt>
      <trkpt lat="49.75108" lon="4.76478">
        <ele>136.919</ele>
        <time>2019-09-20T13:57:09.001Z</time>
      </trkpt>
      <trkpt lat="49.75038" lon="4.76666">
        <ele>143.552</ele>
        <time>2019-09-20T13:57:39.001Z</time>
      </trkpt>
      <trkpt lat="49.74959" lon="4.76856">
        <ele>141.48</ele>
        <time>2019-09-20T13:58:09.001Z</time>
      </trkpt>
      <trkpt lat="49.74882" lon="4.77063">
        <ele>141.788</ele>
        <time>2019-09-20T13:58:39.001Z</time>
      </trkpt>
      <trkpt lat="49.74801" lon="4.77267">
        <ele>139.466</ele>
        <time>2019-09-20T13:59:09.001Z</time>
      </trkpt>
      <trkpt lat="49.74727" lon="4.77459">
        <ele>147.06</ele>
        <time>2019-09-20T13:59:39.001Z</time>
      </trkpt>
      <trkpt lat="49.74655" lon="4.77644">
        <ele>141.439</ele>
        <time>2019-09-20T14:00:09.001Z</time>
      </trkpt>
      <trkpt lat="49.74565" lon="4.77822">
        <ele>139.852</ele>
        <time>2019-09-20T14:00:39.001Z</time>
      </trkpt>
      <trkpt lat="49.74434" lon="4.77919">
        <ele>145.839</ele>
        <time>2019-09-20T14:01:09.001Z</time>
      </trkpt>
      <trkpt lat="49.74289" lon="4.77797">
        <ele>145.324</ele>
        <time>2019-09-20T14:01:39.001Z</time>
      </trkpt>
      <trkpt lat="49.74153" lon="4.77632">
        <ele>140.205</ele>
        <time>2019-09-20T14:02:09.001Z</time>
      </trkpt>
      <trkpt lat="49.74009" lon="4.77573">
        <ele>138.882</ele>
        <time>2019-09-20T14:02:39.001Z</time>
      </trkpt>
      <trkpt lat="49.73877" lon="4.77548">
        <ele>145.183</ele>
        <time>2019-09-20T14:03:09.001Z</time>
      </trkpt>
      <trkpt lat="49.73734" lon="4.77565">
        <ele>148.144</ele>
        <time>2019-09-20T14:03:39.001Z</time>
      </trkpt>
      <trkpt lat="49.73593" lon="4.77592">
        <ele>148.744</ele>
        <time>2019-09-20T14:04:09.001Z</time>
      </trkpt>
      <trkpt lat="49.73458" lon="4.7765">
        <ele>145.85</ele>
        <time>2019-09-20T14:04:39.001Z</time>
      </trkpt>
      <trkpt lat="49.73349" lon="4.77814">
        <ele>143.017</ele>
        <time>2019-09-20T14:05:09.001Z</time>
      </trkpt>
      <trkpt lat="49.73441" lon="4.77949">
        <ele>155.374</ele>
        <time>2019-09-20T14:05:39.001Z</time>
      </trkpt>
      <trkpt lat="49.73419" lon="4.78074">
        <ele>147.724</ele>
        <time>2019-09-20T14:06:09.001Z</time>
      </trkpt>
      <trkpt lat="49.73344" lon="4.78223">
        <ele>145.552</ele>
        <time>2019-09-20T14:06:39.001Z</time>
      </trkpt>
      <trkpt lat="49.73248" lon="4.78329">
        <ele>140.698</ele>
        <time>2019-09-20T14:07:09.001Z</time>
      </trkpt>
      <trkpt lat="49.73162" lon="4.78411">
        <ele>144.082</ele>
        <time>2019-09-20T14:07:39.001Z</time>
      </trkpt>
      <trkpt lat="49.73034" lon="4.78484">
        <ele>147.415</ele>
        <time>2019-09-20T14:08:09.001Z</time>
      </trkpt>
      <trkpt lat="49.72896" lon="4.78515">
        <ele>149.228</ele>
        <time>2019-09-20T14:08:39.001Z</time>
      </trkpt>
      <trkpt lat="49.72757" lon="4.78501">
        <ele>150.333</ele>
        <time>2019-09-20T14:09:09.001Z</time>
      </trkpt>
      <trkpt lat="49.72598" lon="4.78469">
        <ele>148.915</ele>
        <time>2019-09-20T14:09:39.001Z</time>
      </trkpt>
      <trkpt lat="49.72451" lon="4.78351">
        <ele>147.652</ele>
        <time>2019-09-20T14:10:09.001Z</time>
      </trkpt>
      <trkpt lat="49.72282" lon="4.78304">
        <ele>147.878</ele>
        <time>2019-09-20T14:10:39.001Z</time>
      </trkpt>
      <trkpt lat="49.72143" lon="4.78279">
        <ele>146.967</ele>
        <time>2019-09-20T14:11:09.001Z</time>
      </trkpt>
      <trkpt lat="49.72007" lon="4.78257">
        <ele>145.171</ele>
        <time>2019-09-20T14:11:39.001Z</time>
      </trkpt>
      <trkpt lat="49.7186" lon="4.78216">
        <ele>147.641</ele>
        <time>2019-09-20T14:12:09.001Z</time>
      </trkpt>
      <trkpt lat="49.71694" lon="4.78194">
        <ele>146.068</ele>
        <time>2019-09-20T14:12:39.001Z</time>
      </trkpt>
      <trkpt lat="49.71595" lon="4.78029">
        <ele>142.07</ele>
        <time>2019-09-20T14:13:09.001Z</time>
      </trkpt>
      <trkpt lat="49.71482" lon="4.77838">
        <ele>140.275</ele>
        <time>2019-09-20T14:13:39.001Z</time>
      </trkpt>
      <trkpt lat="49.71379" lon="4.77752">
        <ele>147.579</ele>
        <time>2019-09-20T14:14:09.001Z</time>
      </trkpt>
      <trkpt lat="49.71351" lon="4.77737">
        <ele>147.832</ele>
        <time>2019-09-20T14:15:12.001Z</time>
      </trkpt>
      <trkpt lat="49.7122" lon="4.7771">
        <ele>148.434</ele>
        <time>2019-09-20T14:15:42.001Z</time>
      </trkpt>
      <trkpt lat="49.71067" lon="4.77785">
        <ele>147.098</ele>
        <time>2019-09-20T14:16:12.001Z</time>
      </trkpt>
      <trkpt lat="49.70921" lon="4.77854">
        <ele>146.224</ele>
        <time>2019-09-20T14:16:42.001Z</time>
      </trkpt>
      <trkpt lat="49.70774" lon="4.77911">
        <ele>148.499</ele>
        <time>2019-09-20T14:17:12.001Z</time>
      </trkpt>
      <trkpt lat="49.70639" lon="4.78013">
        <ele>146.115</ele>
        <time>2019-09-20T14:17:42.001Z</time>
      </trkpt>
      <trkpt lat="49.7053" lon="4.7817">
        <ele>144.148</ele>
        <time>2019-09-20T14:18:12.001Z</time>
      </trkpt>
      <trkpt lat="49.70404" lon="4.78294">
        <ele>146.715</ele>
        <time>2019-09-20T14:18:42.001Z</time>
      </trkpt>
      <trkpt lat="49.70257" lon="4.78337">
        <ele>143.972</ele>
        <time>2019-09-20T14:19:12.001Z</time>
      </trkpt>
      <trkpt lat="49.70122" lon="4.78403">
        <ele>143.634</ele>
        <time>2019-09-20T14:19:42.001Z</time>
      </trkpt>
      <trkpt lat="49.70003" lon="4.78523">
        <ele>142.266</ele>
        <time>2019-09-20T14:20:12.001Z</time>
      </trkpt>
      <trkpt lat="49.69889" lon="4.78671">
        <ele>142.129</ele>
        <time>2019-09-20T14:20:42.001Z</time>
      </trkpt>
      <trkpt lat="49.6984" lon="4.78891">
        <ele>142.312</ele>
        <time>2019-09-20T14:21:12.001Z</time>
      </trkpt>
      <trkpt lat="49.69796" lon="4.79101">
        <ele>144.738</ele>
        <time>2019-09-20T14:21:42.001Z</time>
      </trkpt>
      <trkpt lat="49.6975" lon="4.79185">
        <ele>153.132</ele>
        <time>2019-09-20T14:22:12.001Z</time>
      </trkpt>
      <trkpt lat="49.69592" lon="4.79177">
        <ele>149.852</ele>
        <time>2019-09-20T14:22:42.001Z</time>
      </trkpt>
      <trkpt lat="49.69545" lon="4.79175">
        <ele>146.87</ele>
        <time>2019-09-20T14:23:12.001Z</time>
      </trkpt>
      <trkpt lat="49.69544" lon="4.79332">
        <ele>148.743</ele>
        <time>2019-09-20T14:23:42.001Z</time>
      </trkpt>
      <trkpt lat="49.6952" lon="4.79556">
        <ele>151.163</ele>
        <time>2019-09-20T14:24:12.001Z</time>
      </trkpt>
      <trkpt lat="49.69502" lon="4.79779">
        <ele>150.345</ele>
        <time>2019-09-20T14:24:42.001Z</time>
      </trkpt>
      <trkpt lat="49.69494" lon="4.79994">
        <ele>149.782</ele>
        <time>2019-09-20T14:25:12.001Z</time>
      </trkpt>
      <trkpt lat="49.69495" lon="4.80201">
        <ele>148.717</ele>
        <time>2019-09-20T14:25:42.001Z</time>
      </trkpt>
      <trkpt lat="49.6951" lon="4.80407">
        <ele>147.04</ele>
        <time>2019-09-20T14:26:12.001Z</time>
      </trkpt>
      <trkpt lat="49.69545" lon="4.80605">
        <ele>144.576</ele>
        <time>2019-09-20T14:26:42.001Z</time>
      </trkpt>
      <trkpt lat="49.69565" lon="4.80812">
        <ele>142.166</ele>
        <time>2019-09-20T14:27:12.001Z</time>
      </trkpt>
      <trkpt lat="49.69556" lon="4.80996">
        <ele>143.157</ele>
        <time>2019-09-20T14:27:42.001Z</time>
      </trkpt>
      <trkpt lat="49.69515" lon="4.81169">
        <ele>144.257</ele>
        <time>2019-09-20T14:28:12.001Z</time>
      </trkpt>
      <trkpt lat="49.69447" lon="4.8132">
        <ele>138.57</ele>
        <time>2019-09-20T14:28:42.001Z</time>
      </trkpt>
      <trkpt lat="49.69385" lon="4.81481">
        <ele>141.129</ele>
        <time>2019-09-20T14:29:12.001Z</time>
      </trkpt>
      <trkpt lat="49.69352" lon="4.81677">
        <ele>142.95</ele>
        <time>2019-09-20T14:29:42.001Z</time>
      </trkpt>
      <trkpt lat="49.69326" lon="4.81915">
        <ele>143.277</ele>
        <time>2019-09-20T14:30:12.001Z</time>
      </trkpt>
      <trkpt lat="49.69316" lon="4.82153">
        <ele>145.585</ele>
        <time>2019-09-20T14:30:42.001Z</time>
      </trkpt>
      <trkpt lat="49.69316" lon="4.8237">
        <ele>143.39</ele>
        <time>2019-09-20T14:31:12.001Z</time>
      </trkpt>
      <trkpt lat="49.69334" lon="4.82583">
        <ele>144.218</ele>
        <time>2019-09-20T14:31:42.001Z</time>
      </trkpt>
      <trkpt lat="49.69353" lon="4.82805">
        <ele>145.321</ele>
        <time>2019-09-20T14:32:12.001Z</time>
      </trkpt>
      <trkpt lat="49.69351" lon="4.8292">
        <ele>147.885</ele>
        <time>2019-09-20T14:33:48.001Z</time>
      </trkpt>
      <trkpt lat="49.69424" lon="4.83046">
        <ele>151.135</ele>
        <time>2019-09-20T14:34:24.001Z</time>
      </trkpt>
      <trkpt lat="49.69511" lon="4.83228">
        <ele>144.61</ele>
        <time>2019-09-20T14:34:54.001Z</time>
      </trkpt>
      <trkpt lat="49.69605" lon="4.83376">
        <ele>141.444</ele>
        <time>2019-09-20T14:35:24.001Z</time>
      </trkpt>
      <trkpt lat="49.69685" lon="4.83545">
        <ele>141.598</ele>
        <time>2019-09-20T14:35:54.001Z</time>
      </trkpt>
      <trkpt lat="49.69743" lon="4.83746">
        <ele>142.75</ele>
        <time>2019-09-20T14:36:24.001Z</time>
      </trkpt>
      <trkpt lat="49.69717" lon="4.83962">
        <ele>146.96</ele>
        <time>2019-09-20T14:36:54.001Z</time>
      </trkpt>
      <trkpt lat="49.69733" lon="4.84178">
        <ele>150.571</ele>
        <time>2019-09-20T14:37:24.001Z</time>
      </trkpt>
      <trkpt lat="49.69757" lon="4.84414">
        <ele>150.597</ele>
        <time>2019-09-20T14:37:54.001Z</time>
      </trkpt>
      <trkpt lat="49.69726" lon="4.84648">
        <ele>148.506</ele>
        <time>2019-09-20T14:38:24.001Z</time>
      </trkpt>
      <trkpt lat="49.69705" lon="4.84875">
        <ele>147.562</ele>
        <time>2019-09-20T14:38:54.001Z</time>
      </trkpt>
      <trkpt lat="49.69725" lon="4.85106">
        <ele>149.724</ele>
        <time>2019-09-20T14:39:24.001Z</time>
      </trkpt>
      <trkpt lat="49.69798" lon="4.85302">
        <ele>149.164</ele>
        <time>2019-09-20T14:39:54.001Z</time>
      </trkpt>
      <trkpt lat="49.69843" lon="4.85499">
        <ele>146.363</ele>
        <time>2019-09-20T14:40:24.001Z</time>
      </trkpt>
      <trkpt lat="49.69776" lon="4.85695">
        <ele>148.161</ele>
        <time>2019-09-20T14:40:54.001Z</time>
      </trkpt>
      <trkpt lat="49.69652" lon="4.85794">
        <ele>146.494</ele>
        <time>2019-09-20T14:41:24.001Z</time>
      </trkpt>
      <trkpt lat="49.69525" lon="4.85908">
        <ele>142.973</ele>
        <time>2019-09-20T14:41:54.001Z</time>
      </trkpt>
      <trkpt lat="49.69411" lon="4.86051">
        <ele>143.675</ele>
        <time>2019-09-20T14:42:24.001Z</time>
      </trkpt>
      <trkpt lat="49.69329" lon="4.86232">
        <ele>141.76</ele>
        <time>2019-09-20T14:42:54.001Z</time>
      </trkpt>
      <trkpt lat="49.69296" lon="4.86443">
        <ele>151.026</ele>
        <time>2019-09-20T14:43:24.001Z</time>
      </trkpt>
      <trkpt lat="49.69302" lon="4.86667">
        <ele>148.864</ele>
        <time>2019-09-20T14:43:54.001Z</time>
      </trkpt>
      <trkpt lat="49.69304" lon="4.8686">
        <ele>147.366</ele>
        <time>2019-09-20T14:44:24.001Z</time>
      </trkpt>
      <trkpt lat="49.69266" lon="4.87061">
        <ele>147.981</ele>
        <time>2019-09-20T14:44:54.001Z</time>
      </trkpt>
      <trkpt lat="49.69224" lon="4.87273">
        <ele>151.77</ele>
        <time>2019-09-20T14:45:24.001Z</time>
      </trkpt>
      <trkpt lat="49.69209" lon="4.8751">
        <ele>154.077</ele>
        <time>2019-09-20T14:45:54.001Z</time>
      </trkpt>
      <trkpt lat="49.69218" lon="4.87699">
        <ele>151.969</ele>
        <time>2019-09-20T14:46:24.001Z</time>
      </trkpt>
      <trkpt lat="49.6928" lon="4.87921">
        <ele>150.521</ele>
        <time>2019-09-20T14:46:54.001Z</time>
      </trkpt>
      <trkpt lat="49.69311" lon="4.8815">
        <ele>145.43</ele>
        <time>2019-09-20T14:47:24.001Z</time>
      </trkpt>
      <trkpt lat="49.69278" lon="4.88369">
        <ele>143.52</ele>
        <time>2019-09-20T14:47:54.001Z</time>
      </trkpt>
      <trkpt lat="49.69259" lon="4.88584">
        <ele>148.71</ele>
        <time>2019-09-20T14:48:24.001Z</time>
      </trkpt>
      <trkpt lat="49.69246" lon="4.88809">
        <ele>150.827</ele>
        <time>2019-09-20T14:48:54.001Z</time>
      </trkpt>
      <trkpt lat="49.69238" lon="4.89013">
        <ele>151.522</ele>
        <time>2019-09-20T14:49:24.001Z</time>
      </trkpt>
      <trkpt lat="49.69239" lon="4.89216">
        <ele>151.527</ele>
        <time>2019-09-20T14:49:54.001Z</time>
      </trkpt>
      <trkpt lat="49.69258" lon="4.89416">
        <ele>148.603</ele>
        <time>2019-09-20T14:50:24.001Z</time>
      </trkpt>
      <trkpt lat="49.69305" lon="4.89609">
        <ele>148.958</ele>
        <time>2019-09-20T14:50:54.001Z</time>
      </trkpt>
      <trkpt lat="49.69402" lon="4.89784">
        <ele>146.216</ele>
        <time>2019-09-20T14:51:24.001Z</time>
      </trkpt>
      <trkpt lat="49.69559" lon="4.89889">
        <ele>147.223</ele>
        <time>2019-09-20T14:51:54.001Z</time>
      </trkpt>
      <trkpt lat="49.69725" lon="4.89924">
        <ele>144.946</ele>
        <time>2019-09-20T14:52:24.001Z</time>
      </trkpt>
      <trkpt lat="49.69881" lon="4.89957">
        <ele>153.547</ele>
        <time>2019-09-20T14:52:54.001Z</time>
      </trkpt>
      <trkpt lat="49.70034" lon="4.89999">
        <ele>167.792</ele>
        <time>2019-09-20T14:53:24.001Z</time>
      </trkpt>
      <trkpt lat="49.7015" lon="4.89837">
        <ele>162.948</ele>
        <time>2019-09-20T14:53:54.001Z</time>
      </trkpt>
      <trkpt lat="49.7027" lon="4.89678">
        <ele>155.64</ele>
        <time>2019-09-20T14:54:24.001Z</time>
      </trkpt>
      <trkpt lat="49.70419" lon="4.89715">
        <ele>149.221</ele>
        <time>2019-09-20T14:54:54.001Z</time>
      </trkpt>
      <trkpt lat="49.70544" lon="4.89787">
        <ele>150.945</ele>
        <time>2019-09-20T14:55:24.001Z</time>
      </trkpt>
      <trkpt lat="49.70661" lon="4.8981">
        <ele>154.279</ele>
        <time>2019-09-20T14:55:54.001Z</time>
      </trkpt>
      <trkpt lat="49.70752" lon="4.89919">
        <ele>154.839</ele>
        <time>2019-09-20T14:56:24.001Z</time>
      </trkpt>
      <trkpt lat="49.70796" lon="4.90069">
        <ele>153.189</ele>
        <time>2019-09-20T14:56:54.001Z</time>
      </trkpt>
      <trkpt lat="49.7081" lon="4.90212">
        <ele>152.217</ele>
        <time>2019-09-20T14:57:24.001Z</time>
      </trkpt>
      <trkpt lat="49.70802" lon="4.90241">
        <ele>151.545</ele>
        <time>2019-09-20T14:58:24.001Z</time>
      </trkpt>
      <trkpt lat="49.70874" lon="4.90161">
        <ele>149.513</ele>
        <time>2019-09-20T14:58:57.001Z</time>
      </trkpt>
      <trkpt lat="49.7089" lon="4.90183">
        <ele>156.004</ele>
        <time>2019-09-20T14:59:27.001Z</time>
      </trkpt>
      <trkpt lat="49.70956" lon="4.90382">
        <ele>150.542</ele>
        <time>2019-09-20T14:59:57.001Z</time>
      </trkpt>
      <trkpt lat="49.71031" lon="4.90604">
        <ele>149.745</ele>
        <time>2019-09-20T15:00:27.001Z</time>
      </trkpt>
      <trkpt lat="49.71105" lon="4.90821">
        <ele>152.004</ele>
        <time>2019-09-20T15:00:57.001Z</time>
      </trkpt>
      <trkpt lat="49.71173" lon="4.91024">
        <ele>150.801</ele>
        <time>2019-09-20T15:01:27.001Z</time>
      </trkpt>
      <trkpt lat="49.7123" lon="4.91186">
        <ele>156.087</ele>
        <time>2019-09-20T15:01:57.001Z</time>
      </trkpt>
      <trkpt lat="49.71224" lon="4.91319">
        <ele>156.179</ele>
        <time>2019-09-20T15:02:27.001Z</time>
      </trkpt>
      <trkpt lat="49.71284" lon="4.91543">
        <ele>152.698</ele>
        <time>2019-09-20T15:02:57.001Z</time>
      </trkpt>
      <trkpt lat="49.71303" lon="4.91764">
        <ele>155.242</ele>
        <time>2019-09-20T15:03:27.001Z</time>
      </trkpt>
      <trkpt lat="49.71271" lon="4.92025">
        <ele>151.219</ele>
        <time>2019-09-20T15:03:57.001Z</time>
      </trkpt>
      <trkpt lat="49.71213" lon="4.92226">
        <ele>150.693</ele>
        <time>2019-09-20T15:04:27.001Z</time>
      </trkpt>
      <trkpt lat="49.71159" lon="4.92402">
        <ele>157.749</ele>
        <time>2019-09-20T15:04:57.001Z</time>
      </trkpt>
      <trkpt lat="49.71081" lon="4.92604">
        <ele>158.696</ele>
        <time>2019-09-20T15:05:27.001Z</time>
      </trkpt>
      <trkpt lat="49.71018" lon="4.92806">
        <ele>156.593</ele>
        <time>2019-09-20T15:05:57.001Z</time>
      </trkpt>
      <trkpt lat="49.70961" lon="4.93019">
        <ele>153.415</ele>
        <time>2019-09-20T15:06:27.001Z</time>
      </trkpt>
      <trkpt lat="49.70883" lon="4.93213">
        <ele>154.143</ele>
        <time>2019-09-20T15:06:57.001Z</time>
      </trkpt>
      <trkpt lat="49.70732" lon="4.93308">
        <ele>150.79</ele>
        <time>2019-09-20T15:07:27.001Z</time>
      </trkpt>
      <trkpt lat="49.70579" lon="4.93369">
        <ele>153.477</ele>
        <time>2019-09-20T15:07:57.001Z</time>
      </trkpt>
      <trkpt lat="49.70456" lon="4.93492">
        <ele>149.895</ele>
        <time>2019-09-20T15:08:27.001Z</time>
      </trkpt>
      <trkpt lat="49.70336" lon="4.93517">
        <ele>150.916</ele>
        <time>2019-09-20T15:08:57.001Z</time>
      </trkpt>
      <trkpt lat="49.70266" lon="4.93372">
        <ele>155.671</ele>
        <time>2019-09-20T15:09:27.001Z</time>
      </trkpt>
      <trkpt lat="49.70196" lon="4.93318">
        <ele>162.493</ele>
        <time>2019-09-20T15:09:57.001Z</time>
      </trkpt>
      <trkpt lat="49.7014" lon="4.93204">
        <ele>166.714</ele>
        <time>2019-09-20T15:10:27.001Z</time>
      </trkpt>
      <trkpt lat="49.70076" lon="4.93045">
        <ele>166.791</ele>
        <time>2019-09-20T15:10:57.001Z</time>
      </trkpt>
      <trkpt lat="49.70001" lon="4.92929">
        <ele>165.046</ele>
        <time>2019-09-20T15:11:27.001Z</time>
      </trkpt>
      <trkpt lat="49.6997" lon="4.92892">
        <ele>162.051</ele>
        <time>2019-09-20T15:12:03.001Z</time>
      </trkpt>
      <trkpt lat="49.69924" lon="4.92799">
        <ele>161.707</ele>
        <time>2019-09-20T15:12:39.001Z</time>
      </trkpt>
      <trkpt lat="49.69867" lon="4.92693">
        <ele>156.026</ele>
        <time>2019-09-20T15:13:09.001Z</time>
      </trkpt>
      <trkpt lat="49.69831" lon="4.92703">
        <ele>161.69</ele>
        <time>2019-09-20T15:14:09.001Z</time>
      </trkpt>
      <trkpt lat="49.69835" lon="4.92745">
        <ele>162.038</ele>
        <time>2019-09-20T15:15:06.001Z</time>
      </trkpt>
      <trkpt lat="49.69834" lon="4.92762">
        <ele>159.199</ele>
        <time>2019-09-20T15:15:42.001Z</time>
      </trkpt>
      <trkpt lat="49.69832" lon="4.92762">
        <ele>159.288</ele>
        <time>2019-09-20T15:16:36.001Z</time>
      </trkpt>
      <trkpt lat="49.69833" lon="4.92756">
        <ele>161.902</ele>
        <time>2019-09-20T15:18:12.001Z</time>
      </trkpt>
      <trkpt lat="49.69836" lon="4.92761">
        <ele>151.853</ele>
        <time>2019-09-20T15:19:06.001Z</time>
      </trkpt>
      <trkpt lat="49.69837" lon="4.92789">
        <ele>161.167</ele>
        <time>2019-09-20T15:20:57.001Z</time>
      </trkpt>
      <trkpt lat="49.69772" lon="4.9288">
        <ele>173.523</ele>
        <time>2019-09-20T15:21:39.001Z</time>
      </trkpt>
      <trkpt lat="49.69641" lon="4.92959">
        <ele>165.219</ele>
        <time>2019-09-20T15:22:09.001Z</time>
      </trkpt>
      <trkpt lat="49.69537" lon="4.93044">
        <ele>171.449</ele>
        <time>2019-09-20T15:22:39.001Z</time>
      </trkpt>
      <trkpt lat="49.69533" lon="4.93245">
        <ele>165.468</ele>
        <time>2019-09-20T15:23:09.001Z</time>
      </trkpt>
      <trkpt lat="49.6958" lon="4.93433">
        <ele>154.658</ele>
        <time>2019-09-20T15:23:39.001Z</time>
      </trkpt>
      <trkpt lat="49.6962" lon="4.93666">
        <ele>158.179</ele>
        <time>2019-09-20T15:24:09.001Z</time>
      </trkpt>
      <trkpt lat="49.69663" lon="4.93849">
        <ele>167.469</ele>
        <time>2019-09-20T15:24:39.001Z</time>
      </trkpt>
      <trkpt lat="49.697" lon="4.94047">
        <ele>179.155</ele>
        <time>2019-09-20T15:25:09.001Z</time>
      </trkpt>
      <trkpt lat="49.69739" lon="4.94259">
        <ele>179.324</ele>
        <time>2019-09-20T15:25:39.001Z</time>
      </trkpt>
      <trkpt lat="49.69757" lon="4.94358">
        <ele>174.59</ele>
        <time>2019-09-20T15:26:15.001Z</time>
      </trkpt>
      <trkpt lat="49.69789" lon="4.94521">
        <ele>176.774</ele>
        <time>2019-09-20T15:26:45.001Z</time>
      </trkpt>
      <trkpt lat="49.69833" lon="4.9474">
        <ele>166.378</ele>
        <time>2019-09-20T15:27:15.001Z</time>
      </trkpt>
      <trkpt lat="49.6986" lon="4.94867">
        <ele>173.634</ele>
        <time>2019-09-20T15:28:06.001Z</time>
      </trkpt>
      <trkpt lat="49.699" lon="4.95069">
        <ele>177.235</ele>
        <time>2019-09-20T15:28:36.001Z</time>
      </trkpt>
      <trkpt lat="49.6985" lon="4.95186">
        <ele>168.387</ele>
        <time>2019-09-20T15:29:06.001Z</time>
      </trkpt>
      <trkpt lat="49.69758" lon="4.95359">
        <ele>159.446</ele>
        <time>2019-09-20T15:29:36.001Z</time>
      </trkpt>
      <trkpt lat="49.69655" lon="4.95488">
        <ele>161.465</ele>
        <time>2019-09-20T15:30:06.001Z</time>
      </trkpt>
      <trkpt lat="49.69533" lon="4.95579">
        <ele>164.68</ele>
        <time>2019-09-20T15:30:36.001Z</time>
      </trkpt>
      <trkpt lat="49.69423" lon="4.95684">
        <ele>170.203</ele>
        <time>2019-09-20T15:31:06.001Z</time>
      </trkpt>
      <trkpt lat="49.69366" lon="4.95753">
        <ele>168.657</ele>
        <time>2019-09-20T15:31:57.001Z</time>
      </trkpt>
      <trkpt lat="49.69297" lon="4.9591">
        <ele>170.969</ele>
        <time>2019-09-20T15:32:27.001Z</time>
      </trkpt>
      <trkpt lat="49.69225" lon="4.96055">
        <ele>178.785</ele>
        <time>2019-09-20T15:32:57.001Z</time>
      </trkpt>
      <trkpt lat="49.69143" lon="4.96158">
        <ele>185.268</ele>
        <time>2019-09-20T15:33:27.001Z</time>
      </trkpt>
      <trkpt lat="49.69055" lon="4.96289">
        <ele>179.491</ele>
        <time>2019-09-20T15:33:57.001Z</time>
      </trkpt>
      <trkpt lat="49.68977" lon="4.96411">
        <ele>171.531</ele>
        <time>2019-09-20T15:34:27.001Z</time>
      </trkpt>
      <trkpt lat="49.68965" lon="4.9643">
        <ele>169.255</ele>
        <time>2019-09-20T15:36:48.001Z</time>
      </trkpt>
      <trkpt lat="49.68902" lon="4.96548">
        <ele>171.009</ele>
        <time>2019-09-20T15:37:21.001Z</time>
      </trkpt>
      <trkpt lat="49.68799" lon="4.96715">
        <ele>160.866</ele>
        <time>2019-09-20T15:37:51.001Z</time>
      </trkpt>
      <trkpt lat="49.6875" lon="4.96878">
        <ele>161.456</ele>
        <time>2019-09-20T15:38:21.001Z</time>
      </trkpt>
      <trkpt lat="49.68791" lon="4.97015">
        <ele>163.717</ele>
        <time>2019-09-20T15:38:51.001Z</time>
      </trkpt>
      <trkpt lat="49.68786" lon="4.97115">
        <ele>172.473</ele>
        <time>2019-09-20T15:39:21.001Z</time>
      </trkpt>
      <trkpt lat="49.68794" lon="4.97226">
        <ele>177.784</ele>
        <time>2019-09-20T15:39:51.001Z</time>
      </trkpt>
      <trkpt lat="49.68813" lon="4.97337">
        <ele>181.062</ele>
        <time>2019-09-20T15:40:21.001Z</time>
      </trkpt>
      <trkpt lat="49.68829" lon="4.97452">
        <ele>182.483</ele>
        <time>2019-09-20T15:40:51.001Z</time>
      </trkpt>
      <trkpt lat="49.68842" lon="4.97567">
        <ele>187.01</ele>
        <time>2019-09-20T15:41:21.001Z</time>
      </trkpt>
      <trkpt lat="49.6886" lon="4.97674">
        <ele>186.208</ele>
        <time>2019-09-20T15:41:51.001Z</time>
      </trkpt>
      <trkpt lat="49.68875" lon="4.97792">
        <ele>187.479</ele>
        <time>2019-09-20T15:42:21.001Z</time>
      </trkpt>
      <trkpt lat="49.68861" lon="4.97918">
        <ele>189.738</ele>
        <time>2019-09-20T15:42:51.001Z</time>
      </trkpt>
      <trkpt lat="49.68814" lon="4.98213">
        <ele>176.381</ele>
        <time>2019-09-20T15:43:21.001Z</time>
      </trkpt>
      <trkpt lat="49.6886" lon="4.98376">
        <ele>164.671</ele>
        <time>2019-09-20T15:43:51.001Z</time>
      </trkpt>
      <trkpt lat="49.68957" lon="4.98447">
        <ele>168.308</ele>
        <time>2019-09-20T15:44:21.001Z</time>
      </trkpt>
      <trkpt lat="49.68992" lon="4.9857">
        <ele>168.658</ele>
        <time>2019-09-20T15:44:51.001Z</time>
      </trkpt>
      <trkpt lat="49.68951" lon="4.98715">
        <ele>164.215</ele>
        <time>2019-09-20T15:45:21.001Z</time>
      </trkpt>
      <trkpt lat="49.68952" lon="4.9881">
        <ele>168.208</ele>
        <time>2019-09-20T15:45:51.001Z</time>
      </trkpt>
      <trkpt lat="49.68919" lon="4.98883">
        <ele>177.714</ele>
        <time>2019-09-20T15:46:24.001Z</time>
      </trkpt>
      <trkpt lat="49.6893" lon="4.98894">
        <ele>173.56</ele>
        <time>2019-09-20T15:49:00.000Z</time>
      </trkpt>
    </trkseg>
  </trk>
</gpx>